Observation data for Boys Ranch on 02/13/2018      Previous  Date  Next       Current Mesonet Observations  Soil Data  Daily Summary Page  Observations in Plain Language
KBY1 130600Z 12004KT M03/M14 A3026 RMK A01 T10321137  RH  044%=      5-min Rain = 0
KBY1 130601Z 12004KT M03/M14 A3026 RMK A01 T10331137  RH  044%=      5-min Rain = 0
KBY1 130602Z 13005KT M03/M14 A3026 RMK A01 T10341138  RH  045%=      5-min Rain = 0
KBY1 130603Z 14005KT M04/M14 A3026 RMK A01 T10351138  RH  045%=      5-min Rain = 0
KBY1 130604Z 14005KT M04/M14 A3026 RMK A01 T10351137  RH  045%=      5-min Rain = 0
KBY1 130605Z 14006KT M04/M14 A3026 RMK A01 T10361137  RH  045%=      5-min Rain = 0
KBY1 130606Z 14006KT M04/M14 A3026 RMK A01 T10371137  RH  046%=      5-min Rain = 0
KBY1 130607Z 14006KT M04/M14 A3026 RMK A01 T10371136  RH  046%=      5-min Rain = 0
KBY1 130608Z 14006KT M04/M13 A3026 RMK A01 T10361134  RH  046%=      5-min Rain = 0
KBY1 130609Z 14006KT M03/M13 A3026 RMK A01 T10341132  RH  047%=      5-min Rain = 0
KBY1 130610Z 14006KT M03/M13 A3026 RMK A01 T10331132  RH  046%=      5-min Rain = 0
KBY1 130611Z 14006KT M03/M13 A3026 RMK A01 T10311129  RH  047%=      5-min Rain = 0
KBY1 130612Z 14006KT M03/M13 A3026 RMK A01 T10271126  RH  046%=      5-min Rain = 0
KBY1 130613Z 13006KT M02/M12 A3026 RMK A01 T10241124  RH  046%=      5-min Rain = 0
KBY1 130614Z 14006KT M02/M12 A3026 RMK A01 T10221124  RH  045%=      5-min Rain = 0
KBY1 130615Z 13005KT M02/M12 A3026 RMK A01 T10191123  RH  045%=      5-min Rain = 0
KBY1 130616Z 15007KT M02/M12 A3027 RMK A01 T10171122  RH  044%=      5-min Rain = 0
KBY1 130617Z 14007KT M01/M12 A3027 RMK A01 T10141121  RH  044%=      5-min Rain = 0
KBY1 130618Z 14006KT M01/M12 A3027 RMK A01 T10121121  RH  043%=      5-min Rain = 0
KBY1 130619Z 13006KT M01/M12 A3027 RMK A01 T10101121  RH  043%=      5-min Rain = 0
KBY1 130620Z 15007KT M01/M12 A3027 RMK A01 T10101121  RH  042%=      5-min Rain = 0
KBY1 130621Z 14006KT M01/M12 A3027 RMK A01 T10081120  RH  042%=      5-min Rain = 0
KBY1 130622Z 14006KT M01/M12 A3027 RMK A01 T10071120  RH  042%=      5-min Rain = 0
KBY1 130623Z 13006KT M01/M12 A3027 RMK A01 T10071121  RH  042%=      5-min Rain = 0
KBY1 130624Z 13007KT M01/M12 A3027 RMK A01 T10081122  RH  042%=      5-min Rain = 0
KBY1 130625Z 14007KT M01/M12 A3027 RMK A01 T10081122  RH  042%=      5-min Rain = 0
KBY1 130626Z 13007KT M01/M12 A3027 RMK A01 T10081122  RH  042%=      5-min Rain = 0
KBY1 130627Z 12006KT M01/M12 A3027 RMK A01 T10081122  RH  042%=      5-min Rain = 0
KBY1 130628Z 11006KT M01/M12 A3027 RMK A01 T10081123  RH  041%=      5-min Rain = 0
KBY1 130629Z 13005KT M01/M12 A3027 RMK A01 T10091124  RH  041%=      5-min Rain = 0
KBY1 130630Z 11006KT M01/M13 A3027 RMK A01 T10101125  RH  042%=      5-min Rain = 0
KBY1 130631Z 12006KT M01/M12 A3027 RMK A01 T10111124  RH  042%=      5-min Rain = 0
KBY1 130632Z 11005KT M01/M12 A3027 RMK A01 T10111124  RH  042%=      5-min Rain = 0
KBY1 130633Z 11004KT M01/M12 A3027 RMK A01 T10121124  RH  042%=      5-min Rain = 0
KBY1 130634Z 10004KT M01/M13 A3027 RMK A01 T10131125  RH  042%=      5-min Rain = 0
KBY1 130635Z 11004KT M01/M13 A3027 RMK A01 T10141126  RH  042%=      5-min Rain = 0
KBY1 130636Z 12006KT M02/M13 A3027 RMK A01 T10151125  RH  043%=      5-min Rain = 0
KBY1 130637Z 10005KT M01/M12 A3027 RMK A01 T10141124  RH  043%=      5-min Rain = 0
KBY1 130638Z 10006KT M01/M12 A3027 RMK A01 T10131123  RH  043%=      5-min Rain = 0
KBY1 130639Z 12004KT M01/M12 A3027 RMK A01 T10121122  RH  043%=      5-min Rain = 0
KBY1 130640Z 13003KT M01/M12 A3027 RMK A01 T10111122  RH  043%=      5-min Rain = 0
KBY1 130641Z 12004KT M01/M12 A3027 RMK A01 T10111123  RH  043%=      5-min Rain = 0
KBY1 130642Z 12004KT M01/M12 A3027 RMK A01 T10131124  RH  042%=      5-min Rain = 0
KBY1 130643Z 12005KT M02/M13 A3027 RMK A01 T10151126  RH  043%=      5-min Rain = 0
KBY1 130644Z 13005KT M02/M13 A3027 RMK A01 T10171126  RH  043%=      5-min Rain = 0
KBY1 130645Z 13006KT M02/M13 A3027 RMK A01 T10181126  RH  044%=      5-min Rain = 0
KBY1 130646Z 13005KT M02/M13 A3027 RMK A01 T10191126  RH  044%=      5-min Rain = 0
KBY1 130647Z 13006KT M02/M13 A3027 RMK A01 T10201126  RH  044%=      5-min Rain = 0
KBY1 130648Z 13006KT M02/M13 A3027 RMK A01 T10221127  RH  044%=      5-min Rain = 0
KBY1 130649Z 13006KT M02/M13 A3027 RMK A01 T10231127  RH  045%=      5-min Rain = 0
KBY1 130650Z 14006KT M03/M13 A3027 RMK A01 T10251127  RH  045%=      5-min Rain = 0
KBY1 130651Z 14007KT M03/M13 A3027 RMK A01 T10261127  RH  046%=      5-min Rain = 0
KBY1 130652Z 14007KT M03/M13 A3027 RMK A01 T10261127  RH  046%=      5-min Rain = 0
KBY1 130653Z 13007KT M03/M13 A3027 RMK A01 T10261126  RH  046%=      5-min Rain = 0
KBY1 130654Z 13007KT M03/M13 A3027 RMK A01 T10251125  RH  046%=      5-min Rain = 0
KBY1 130655Z 13006KT M02/M12 A3027 RMK A01 T10241124  RH  046%=      5-min Rain = 0
KBY1 130656Z 13006KT M02/M12 A3027 RMK A01 T10231124  RH  046%=      5-min Rain = 0
KBY1 130657Z 13006KT M02/M13 A3027 RMK A01 T10221125  RH  045%=      5-min Rain = 0
KBY1 130658Z 13006KT M02/M13 A3027 RMK A01 T10221125  RH  045%=      5-min Rain = 0
KBY1 130659Z 13006KT M02/M13 A3027 RMK A01 T10221126  RH  045%=      5-min Rain = 0
KBY1 130700Z 13005KT M02/M13 A3027 RMK A01 T10221126  RH  045%=      5-min Rain = 0
KBY1 130701Z 12005KT M02/M13 A3027 RMK A01 T10231127  RH  045%=      5-min Rain = 0
KBY1 130702Z 12005KT M02/M13 A3027 RMK A01 T10241127  RH  045%=      5-min Rain = 0
KBY1 130703Z 12005KT M02/M13 A3027 RMK A01 T10241128  RH  045%=      5-min Rain = 0
KBY1 130704Z 12005KT M03/M13 A3027 RMK A01 T10251129  RH  045%=      5-min Rain = 0
KBY1 130705Z 11005KT M03/M13 A3027 RMK A01 T10271130  RH  045%=      5-min Rain = 0
KBY1 130706Z 12004KT M03/M13 A3027 RMK A01 T10281130  RH  045%=      5-min Rain = 0
KBY1 130707Z 12004KT M03/M13 A3027 RMK A01 T10291131  RH  045%=      5-min Rain = 0
KBY1 130708Z 12005KT M03/M13 A3027 RMK A01 T10301131  RH  046%=      5-min Rain = 0
KBY1 130709Z 12005KT M03/M13 A3027 RMK A01 T10311132  RH  046%=      5-min Rain = 0
KBY1 130710Z 12005KT M03/M13 A3027 RMK A01 T10331133  RH  046%=      5-min Rain = 0
KBY1 130711Z 12005KT M03/M13 A3027 RMK A01 T10341133  RH  046%=      5-min Rain = 0
KBY1 130712Z 12006KT M04/M13 A3027 RMK A01 T10351133  RH  047%=      5-min Rain = 0
KBY1 130713Z 12005KT M04/M13 A3027 RMK A01 T10361133  RH  047%=      5-min Rain = 0
KBY1 130714Z 13005KT M04/M13 A3027 RMK A01 T10371133  RH  047%=      5-min Rain = 0
KBY1 130715Z 13006KT M04/M13 A3027 RMK A01 T10371133  RH  047%=      5-min Rain = 0
KBY1 130716Z 13006KT M04/M13 A3027 RMK A01 T10371133  RH  048%=      5-min Rain = 0
KBY1 130717Z 13006KT M04/M13 A3027 RMK A01 T10381133  RH  048%=      5-min Rain = 0
KBY1 130718Z 13006KT M04/M13 A3027 RMK A01 T10381133  RH  048%=      5-min Rain = 0
KBY1 130719Z 13006KT M04/M13 A3027 RMK A01 T10381133  RH  048%=      5-min Rain = 0
KBY1 130720Z 13006KT M04/M13 A3027 RMK A01 T10381132  RH  048%=      5-min Rain = 0
KBY1 130721Z 13006KT M04/M13 A3027 RMK A01 T10381132  RH  048%=      5-min Rain = 0
KBY1 130722Z 12005KT M04/M13 A3027 RMK A01 T10381132  RH  048%=      5-min Rain = 0
KBY1 130723Z 13005KT M04/M13 A3027 RMK A01 T10371132  RH  048%=      5-min Rain = 0
KBY1 130724Z 12005KT M04/M13 A3027 RMK A01 T10371132  RH  048%=      5-min Rain = 0
KBY1 130725Z 12004KT M04/M13 A3027 RMK A01 T10371132  RH  048%=      5-min Rain = 0
KBY1 130726Z 12003KT M04/M13 A3027 RMK A01 T10371132  RH  048%=      5-min Rain = 0
KBY1 130727Z 12003KT M04/M13 A3027 RMK A01 T10371132  RH  048%=      5-min Rain = 0
KBY1 130728Z 11002KT M04/M13 A3027 RMK A01 T10371133  RH  048%=      5-min Rain = 0
KBY1 130729Z 09001KT M04/M13 A3027 RMK A01 T10381133  RH  048%=      5-min Rain = 0
KBY1 130730Z 07001KT M04/M13 A3027 RMK A01 T10401134  RH  048%=      5-min Rain = 0
KBY1 130731Z 07001KT M04/M13 A3027 RMK A01 T10401134  RH  048%=      5-min Rain = 0
KBY1 130732Z 06001KT M04/M13 A3027 RMK A01 T10401133  RH  048%=      5-min Rain = 0
KBY1 130733Z 07001KT M04/M13 A3027 RMK A01 T10411134  RH  048%=      5-min Rain = 0
KBY1 130734Z 07002KT M04/M13 A3027 RMK A01 T10411134  RH  048%=      5-min Rain = 0
KBY1 130735Z 08002KT M04/M13 A3027 RMK A01 T10421134  RH  049%=      5-min Rain = 0
KBY1 130736Z 08002KT M04/M14 A3027 RMK A01 T10421135  RH  049%=      5-min Rain = 0
KBY1 130737Z 08002KT M04/M14 A3027 RMK A01 T10431135  RH  049%=      5-min Rain = 0
KBY1 130738Z 08002KT M04/M14 A3027 RMK A01 T10441135  RH  049%=      5-min Rain = 0
KBY1 130739Z 08003KT M04/M14 A3027 RMK A01 T10441135  RH  049%=      5-min Rain = 0
KBY1 130740Z 08002KT M05/M14 A3027 RMK A01 T10451136  RH  049%=      5-min Rain = 0
KBY1 130741Z 08002KT M05/M14 A3027 RMK A01 T10461136  RH  049%=      5-min Rain = 0
KBY1 130742Z 08003KT M05/M14 A3027 RMK A01 T10461136  RH  050%=      5-min Rain = 0
KBY1 130743Z 09003KT M05/M14 A3027 RMK A01 T10471136  RH  050%=      5-min Rain = 0
KBY1 130744Z 09002KT M05/M14 A3027 RMK A01 T10481136  RH  050%=      5-min Rain = 0
KBY1 130745Z 10002KT M05/M14 A3027 RMK A01 T10481136  RH  050%=      5-min Rain = 0
KBY1 130746Z 11002KT M05/M14 A3027 RMK A01 T10481136  RH  050%=      5-min Rain = 0
KBY1 130747Z 12002KT M05/M14 A3027 RMK A01 T10491136  RH  050%=      5-min Rain = 0
KBY1 130748Z 12003KT M05/M14 A3027 RMK A01 T10491136  RH  051%=      5-min Rain = 0
KBY1 130749Z 12004KT M05/M14 A3027 RMK A01 T10491136  RH  051%=      5-min Rain = 0
KBY1 130750Z 12004KT M05/M14 A3027 RMK A01 T10501136  RH  051%=      5-min Rain = 0
KBY1 130751Z 13004KT M05/M14 A3027 RMK A01 T10511136  RH  051%=      5-min Rain = 0
KBY1 130752Z 13005KT M05/M14 A3027 RMK A01 T10521137  RH  051%=      5-min Rain = 0
KBY1 130753Z 13005KT M05/M14 A3027 RMK A01 T10521137  RH  051%=      5-min Rain = 0
KBY1 130754Z 15004KT M05/M14 A3027 RMK A01 T10531137  RH  052%=      5-min Rain = 0
KBY1 130755Z 15004KT M05/M14 A3027 RMK A01 T10541138  RH  052%=      5-min Rain = 0
KBY1 130756Z 14004KT M06/M14 A3027 RMK A01 T10551139  RH  052%=      5-min Rain = 0
KBY1 130757Z 14004KT M06/M14 A3027 RMK A01 T10561138  RH  052%=      5-min Rain = 0
KBY1 130758Z 14004KT M06/M14 A3027 RMK A01 T10551136  RH  053%=      5-min Rain = 0
KBY1 130759Z 14004KT M05/M13 A3027 RMK A01 T10541134  RH  053%=      5-min Rain = 0
KBY1 130800Z 15004KT M05/M13 A3027 RMK A01 T10531134  RH  053%=      5-min Rain = 0
KBY1 130801Z 15004KT M05/M13 A3027 RMK A01 T10531133  RH  053%=      5-min Rain = 0
KBY1 130802Z 15004KT M05/M13 A3027 RMK A01 T10531134  RH  053%=      5-min Rain = 0
KBY1 130803Z 15004KT M05/M13 A3027 RMK A01 T10541133  RH  053%=      5-min Rain = 0
KBY1 130804Z 15004KT M05/M13 A3027 RMK A01 T10541132  RH  054%=      5-min Rain = 0
KBY1 130805Z 15004KT M05/M13 A3027 RMK A01 T10531131  RH  054%=      5-min Rain = 0
KBY1 130806Z 16003KT M05/M13 A3027 RMK A01 T10521131  RH  054%=      5-min Rain = 0
KBY1 130807Z 16003KT M05/M13 A3027 RMK A01 T10511132  RH  053%=      5-min Rain = 0
KBY1 130808Z 16003KT M05/M13 A3027 RMK A01 T10511133  RH  053%=      5-min Rain = 0
KBY1 130809Z 15003KT M05/M13 A3027 RMK A01 T10511133  RH  053%=      5-min Rain = 0
KBY1 130810Z 15003KT M05/M13 A3027 RMK A01 T10511133  RH  053%=      5-min Rain = 0
KBY1 130811Z 15003KT M05/M13 A3027 RMK A01 T10511133  RH  053%=      5-min Rain = 0
KBY1 130812Z 17003KT M05/M13 A3027 RMK A01 T10511133  RH  053%=      5-min Rain = 0
KBY1 130813Z 18003KT M05/M13 A3027 RMK A01 T10511133  RH  052%=      5-min Rain = 0
KBY1 130814Z 17003KT M05/M13 A3027 RMK A01 T10511134  RH  052%=      5-min Rain = 0
KBY1 130815Z 17003KT M05/M13 A3027 RMK A01 T10511133  RH  053%=      5-min Rain = 0
KBY1 130816Z 17003KT M05/M13 A3027 RMK A01 T10511133  RH  053%=      5-min Rain = 0
KBY1 130817Z 16003KT M05/M13 A3027 RMK A01 T10521133  RH  053%=      5-min Rain = 0
KBY1 130818Z 16003KT M05/M13 A3027 RMK A01 T10521133  RH  053%=      5-min Rain = 0
KBY1 130819Z 16002KT M05/M13 A3027 RMK A01 T10521132  RH  053%=      5-min Rain = 0
KBY1 130820Z 16002KT M05/M13 A3027 RMK A01 T10521132  RH  053%=      5-min Rain = 0
KBY1 130821Z 16002KT M05/M13 A3027 RMK A01 T10521132  RH  053%=      5-min Rain = 0
KBY1 130822Z 16002KT M05/M13 A3027 RMK A01 T10511133  RH  053%=      5-min Rain = 0
KBY1 130823Z 16003KT M05/M13 A3027 RMK A01 T10511132  RH  053%=      5-min Rain = 0
KBY1 130824Z 16003KT M05/M13 A3027 RMK A01 T10501131  RH  053%=      5-min Rain = 0
KBY1 130825Z 16003KT M05/M13 A3027 RMK A01 T10491131  RH  053%=      5-min Rain = 0
KBY1 130826Z 16004KT M05/M13 A3027 RMK A01 T10491132  RH  052%=      5-min Rain = 0
KBY1 130827Z 15004KT M05/M13 A3027 RMK A01 T10491132  RH  052%=      5-min Rain = 0
KBY1 130828Z 15005KT M05/M13 A3027 RMK A01 T10491133  RH  052%=      5-min Rain = 0
KBY1 130829Z 15005KT M05/M14 A3026 RMK A01 T10511136  RH  051%=      5-min Rain = 0
KBY1 130830Z 16005KT M05/M14 A3026 RMK A01 T10531137  RH  052%=      5-min Rain = 0
KBY1 130831Z 16004KT M06/M14 A3027 RMK A01 T10551137  RH  052%=      5-min Rain = 0
KBY1 130832Z 16004KT M06/M14 A3027 RMK A01 T10551136  RH  053%=      5-min Rain = 0
KBY1 130833Z 16004KT M06/M14 A3027 RMK A01 T10551135  RH  053%=      5-min Rain = 0
KBY1 130834Z 16005KT M06/M14 A3026 RMK A01 T10551135  RH  053%=      5-min Rain = 0
KBY1 130835Z 15005KT M06/M14 A3026 RMK A01 T10551135  RH  053%=      5-min Rain = 0
KBY1 130836Z 16004KT M05/M13 A3027 RMK A01 T10541134  RH  054%=      5-min Rain = 0
KBY1 130837Z 16004KT M05/M13 A3027 RMK A01 T10541134  RH  054%=      5-min Rain = 0
KBY1 130838Z 16004KT M06/M13 A3027 RMK A01 T10551133  RH  054%=      5-min Rain = 0
KBY1 130839Z 16003KT M05/M13 A3027 RMK A01 T10541132  RH  054%=      5-min Rain = 0
KBY1 130840Z 16003KT M05/M13 A3027 RMK A01 T10541131  RH  054%=      5-min Rain = 0
KBY1 130841Z 16002KT M05/M13 A3027 RMK A01 T10531131  RH  054%=      5-min Rain = 0
KBY1 130842Z 16002KT M05/M13 A3027 RMK A01 T10521130  RH  054%=      5-min Rain = 0
KBY1 130843Z 15002KT M05/M13 A3027 RMK A01 T10511130  RH  054%=      5-min Rain = 0
KBY1 130844Z 15002KT M05/M13 A3027 RMK A01 T10501129  RH  054%=      5-min Rain = 0
KBY1 130845Z 15002KT M05/M13 A3027 RMK A01 T10491129  RH  054%=      5-min Rain = 0
KBY1 130846Z 14002KT M05/M13 A3027 RMK A01 T10491129  RH  053%=      5-min Rain = 0
KBY1 130847Z 14002KT M05/M13 A3027 RMK A01 T10481129  RH  053%=      5-min Rain = 0
KBY1 130848Z 13001KT M05/M13 A3027 RMK A01 T10481129  RH  053%=      5-min Rain = 0
KBY1 130849Z 12001KT M05/M13 A3027 RMK A01 T10481130  RH  053%=      5-min Rain = 0
KBY1 130850Z 11001KT M05/M13 A3027 RMK A01 T10481130  RH  052%=      5-min Rain = 0
KBY1 130851Z 11001KT M05/M13 A3027 RMK A01 T10481130  RH  052%=      5-min Rain = 0
KBY1 130852Z 11000KT M05/M13 A3027 RMK A01 T10481130  RH  053%=      5-min Rain = 0
KBY1 130853Z 11000KT M05/M13 A3027 RMK A01 T10481130  RH  053%=      5-min Rain = 0
KBY1 130854Z 08000KT M05/M13 A3027 RMK A01 T10491130  RH  053%=      5-min Rain = 0
KBY1 130855Z 10000KT M05/M13 A3027 RMK A01 T10491130  RH  053%=      5-min Rain = 0
KBY1 130856Z 00000KT M05/M13 A3027 RMK A01 T10481129  RH  053%=      5-min Rain = 0
KBY1 130857Z 00000KT M05/M13 A3027 RMK A01 T10481129  RH  053%=      5-min Rain = 0
KBY1 130858Z 13000KT M05/M13 A3027 RMK A01 T10491130  RH  053%=      5-min Rain = 0
KBY1 130859Z 00000KT M05/M13 A3027 RMK A01 T10491130  RH  053%=      5-min Rain = 0
KBY1 130900Z 14001KT M05/M13 A3027 RMK A01 T10491130  RH  053%=      5-min Rain = 0
KBY1 130901Z 14001KT M05/M13 A3027 RMK A01 T10491130  RH  053%=      5-min Rain = 0
KBY1 130902Z 15000KT M05/M13 A3027 RMK A01 T10491131  RH  053%=      5-min Rain = 0
KBY1 130903Z 16000KT M05/M13 A3027 RMK A01 T10501131  RH  053%=      5-min Rain = 0
KBY1 130904Z 16000KT M05/M13 A3027 RMK A01 T10501131  RH  053%=      5-min Rain = 0
KBY1 130905Z 15001KT M05/M13 A3027 RMK A01 T10501130  RH  053%=      5-min Rain = 0
KBY1 130906Z 17000KT M05/M13 A3027 RMK A01 T10501130  RH  053%=      5-min Rain = 0
KBY1 130907Z 00000KT M05/M13 A3027 RMK A01 T10501130  RH  053%=      5-min Rain = 0
KBY1 130908Z 00000KT M05/M13 A3027 RMK A01 T10511131  RH  053%=      5-min Rain = 0
KBY1 130909Z 06000KT M05/M13 A3027 RMK A01 T10501131  RH  053%=      5-min Rain = 0
KBY1 130910Z 06001KT M05/M13 A3027 RMK A01 T10501131  RH  053%=      5-min Rain = 0
KBY1 130911Z 05000KT M05/M13 A3027 RMK A01 T10501131  RH  053%=      5-min Rain = 0
KBY1 130912Z 04000KT M05/M13 A3027 RMK A01 T10511132  RH  053%=      5-min Rain = 0
KBY1 130913Z 04000KT M05/M13 A3027 RMK A01 T10511131  RH  053%=      5-min Rain = 0
KBY1 130914Z 04001KT M05/M13 A3027 RMK A01 T10521132  RH  053%=      5-min Rain = 0
KBY1 130915Z 05001KT M05/M13 A3027 RMK A01 T10521132  RH  054%=      5-min Rain = 0
KBY1 130916Z 04001KT M05/M13 A3027 RMK A01 T10531132  RH  054%=      5-min Rain = 0
KBY1 130917Z 04000KT M05/M13 A3027 RMK A01 T10531132  RH  054%=      5-min Rain = 0
KBY1 130918Z 05001KT M05/M13 A3027 RMK A01 T10531132  RH  054%=      5-min Rain = 0
KBY1 130919Z 07001KT M05/M13 A3027 RMK A01 T10521131  RH  054%=      5-min Rain = 0
KBY1 130920Z 07001KT M05/M13 A3027 RMK A01 T10521130  RH  054%=      5-min Rain = 0
KBY1 130921Z 07001KT M05/M13 A3027 RMK A01 T10511130  RH  054%=      5-min Rain = 0
KBY1 130922Z 07001KT M05/M13 A3027 RMK A01 T10521132  RH  053%=      5-min Rain = 0
KBY1 130923Z 06001KT M05/M13 A3027 RMK A01 T10521132  RH  053%=      5-min Rain = 0
KBY1 130924Z 06001KT M05/M13 A3027 RMK A01 T10531133  RH  054%=      5-min Rain = 0
KBY1 130925Z 06000KT M05/M13 A3027 RMK A01 T10541132  RH  054%=      5-min Rain = 0
KBY1 130926Z 07000KT M05/M13 A3027 RMK A01 T10541132  RH  054%=      5-min Rain = 0
KBY1 130927Z 11001KT M05/M13 A3027 RMK A01 T10531131  RH  054%=      5-min Rain = 0
KBY1 130928Z 11001KT M05/M13 A3027 RMK A01 T10531131  RH  054%=      5-min Rain = 0
KBY1 130929Z 11001KT M05/M13 A3027 RMK A01 T10531133  RH  054%=      5-min Rain = 0
KBY1 130930Z 11001KT M06/M13 A3027 RMK A01 T10551134  RH  054%=      5-min Rain = 0
KBY1 130931Z 11001KT M06/M13 A3027 RMK A01 T10551134  RH  054%=      5-min Rain = 0
KBY1 130932Z 11001KT M06/M13 A3027 RMK A01 T10561134  RH  054%=      5-min Rain = 0
KBY1 130933Z 11001KT M06/M14 A3026 RMK A01 T10581138  RH  053%=      5-min Rain = 0
KBY1 130934Z 11001KT M06/M14 A3026 RMK A01 T10611141  RH  053%=      5-min Rain = 0
KBY1 130935Z 11000KT M06/M14 A3026 RMK A01 T10621138  RH  055%=      5-min Rain = 0
KBY1 130936Z 00000KT M06/M14 A3026 RMK A01 T10621136  RH  056%=      5-min Rain = 0
KBY1 130937Z 00000KT M06/M14 A3026 RMK A01 T10621135  RH  056%=      5-min Rain = 0
KBY1 130938Z 00000KT M06/M13 A3026 RMK A01 T10621134  RH  057%=      5-min Rain = 0
KBY1 130939Z 00000KT M06/M13 A3026 RMK A01 T10611134  RH  057%=      5-min Rain = 0
KBY1 130940Z 00000KT M06/M13 A3026 RMK A01 T10611133  RH  057%=      5-min Rain = 0
KBY1 130941Z 00000KT M06/M13 A3026 RMK A01 T10591131  RH  057%=      5-min Rain = 0
KBY1 130942Z 00000KT M06/M13 A3026 RMK A01 T10581131  RH  056%=      5-min Rain = 0
KBY1 130943Z 00000KT M06/M14 A3026 RMK A01 T10591135  RH  055%=      5-min Rain = 0
KBY1 130944Z 04000KT M06/M14 A3026 RMK A01 T10641142  RH  054%=      5-min Rain = 0
KBY1 130945Z 04000KT M07/M14 A3026 RMK A01 T10671142  RH  055%=      5-min Rain = 0
KBY1 130946Z 00000KT M07/M14 A3026 RMK A01 T10671138  RH  057%=      5-min Rain = 0
KBY1 130947Z 05000KT M07/M13 A3026 RMK A01 T10661134  RH  058%=      5-min Rain = 0
KBY1 130948Z 05000KT M06/M13 A3026 RMK A01 T10641132  RH  058%=      5-min Rain = 0
KBY1 130949Z 00000KT M06/M13 A3027 RMK A01 T10621132  RH  058%=      5-min Rain = 0
KBY1 130950Z 00000KT M06/M13 A3027 RMK A01 T10611131  RH  057%=      5-min Rain = 0
KBY1 130951Z 01000KT M06/M13 A3027 RMK A01 T10591131  RH  057%=      5-min Rain = 0
KBY1 130952Z 01001KT M06/M13 A3027 RMK A01 T10591133  RH  056%=      5-min Rain = 0
KBY1 130953Z 02001KT M06/M14 A3027 RMK A01 T10611137  RH  055%=      5-min Rain = 0
KBY1 130954Z 04001KT M06/M14 A3027 RMK A01 T10641138  RH  055%=      5-min Rain = 0
KBY1 130955Z 04001KT M06/M14 A3027 RMK A01 T10641136  RH  057%=      5-min Rain = 0
KBY1 130956Z 05001KT M07/M14 A3027 RMK A01 T10651138  RH  056%=      5-min Rain = 0
KBY1 130957Z 04001KT M07/M14 A3027 RMK A01 T10681140  RH  057%=      5-min Rain = 0
KBY1 130958Z 03001KT M07/M14 A3027 RMK A01 T10681137  RH  058%=      5-min Rain = 0
KBY1 130959Z 04001KT M07/M14 A3027 RMK A01 T10671136  RH  058%=      5-min Rain = 0
KBY1 131000Z 04000KT M07/M14 A3027 RMK A01 T10671136  RH  058%=      5-min Rain = 0
KBY1 131001Z 00000KT M07/M14 A3027 RMK A01 T10671136  RH  058%=      5-min Rain = 0
KBY1 131002Z 00000KT M07/M14 A3027 RMK A01 T10681138  RH  058%=      5-min Rain = 0
KBY1 131003Z 00000KT M07/M14 A3027 RMK A01 T10701139  RH  058%=      5-min Rain = 0
KBY1 131004Z 00000KT M07/M14 A3027 RMK A01 T10721140  RH  058%=      5-min Rain = 0
KBY1 131005Z 00000KT M07/M14 A3027 RMK A01 T10711137  RH  060%=      5-min Rain = 0
KBY1 131006Z 31000KT M07/M14 A3027 RMK A01 T10711138  RH  059%=      5-min Rain = 0
KBY1 131007Z 31000KT M07/M14 A3027 RMK A01 T10721137  RH  059%=      5-min Rain = 0
KBY1 131008Z 32001KT M07/M14 A3027 RMK A01 T10721140  RH  058%=      5-min Rain = 0
KBY1 131009Z 34001KT M07/M14 A3027 RMK A01 T10731141  RH  058%=      5-min Rain = 0
KBY1 131010Z 00000KT M07/M14 A3027 RMK A01 T10731138  RH  060%=      5-min Rain = 0
KBY1 131011Z 00000KT M07/M14 A3027 RMK A01 T10721137  RH  060%=      5-min Rain = 0
KBY1 131012Z 00000KT M07/M14 A3027 RMK A01 T10741141  RH  059%=      5-min Rain = 0
KBY1 131013Z 06000KT M08/M15 A3027 RMK A01 T10771145  RH  058%=      5-min Rain = 0
KBY1 131014Z 07001KT M08/M15 A3027 RMK A01 T10801148  RH  058%=      5-min Rain = 0
KBY1 131015Z 03000KT M08/M15 A3027 RMK A01 T10811147  RH  059%=      5-min Rain = 0
KBY1 131016Z 36001KT M08/M14 A3027 RMK A01 T10811144  RH  061%=      5-min Rain = 0
KBY1 131017Z 36001KT M08/M14 A3027 RMK A01 T10791140  RH  062%=      5-min Rain = 0
KBY1 131018Z 01001KT M08/M14 A3027 RMK A01 T10771136  RH  062%=      5-min Rain = 0
KBY1 131019Z 01001KT M08/M14 A3027 RMK A01 T10751135  RH  062%=      5-min Rain = 0
KBY1 131020Z 01000KT M08/M14 A3027 RMK A01 T10751137  RH  061%=      5-min Rain = 0
KBY1 131021Z 00000KT M08/M14 A3027 RMK A01 T10751136  RH  062%=      5-min Rain = 0
KBY1 131022Z 00000KT M08/M14 A3027 RMK A01 T10751138  RH  060%=      5-min Rain = 0
KBY1 131023Z 00000KT M08/M14 A3027 RMK A01 T10751139  RH  060%=      5-min Rain = 0
KBY1 131024Z 00000KT M08/M14 A3027 RMK A01 T10761140  RH  060%=      5-min Rain = 0
KBY1 131025Z 00000KT M08/M14 A3027 RMK A01 T10771142  RH  060%=      5-min Rain = 0
KBY1 131026Z 00000KT M08/M14 A3027 RMK A01 T10791143  RH  060%=      5-min Rain = 0
KBY1 131027Z 00000KT M08/M14 A3027 RMK A01 T10791141  RH  061%=      5-min Rain = 0
KBY1 131028Z 00000KT M08/M14 A3027 RMK A01 T10781139  RH  062%=      5-min Rain = 0
KBY1 131029Z 00000KT M08/M14 A3027 RMK A01 T10781137  RH  062%=      5-min Rain = 0
KBY1 131030Z 00000KT M08/M14 A3027 RMK A01 T10771137  RH  062%=      5-min Rain = 0
KBY1 131031Z 00000KT M08/M14 A3027 RMK A01 T10761136  RH  062%=      5-min Rain = 0
KBY1 131032Z 00000KT M08/M14 A3027 RMK A01 T10761138  RH  062%=      5-min Rain = 0
KBY1 131033Z 00000KT M08/M14 A3027 RMK A01 T10771140  RH  060%=      5-min Rain = 0
KBY1 131034Z 00000KT M08/M14 A3027 RMK A01 T10771142  RH  060%=      5-min Rain = 0
KBY1 131035Z 18001KT M08/M14 A3027 RMK A01 T10781142  RH  060%=      5-min Rain = 0
KBY1 131036Z 18000KT M08/M14 A3027 RMK A01 T10791144  RH  060%=      5-min Rain = 0
KBY1 131037Z 18000KT M08/M14 A3027 RMK A01 T10801144  RH  060%=      5-min Rain = 0
KBY1 131038Z 20000KT M08/M14 A3027 RMK A01 T10801140  RH  062%=      5-min Rain = 0
KBY1 131039Z 00000KT M08/M14 A3027 RMK A01 T10791139  RH  062%=      5-min Rain = 0
KBY1 131040Z 00000KT M08/M14 A3027 RMK A01 T10791138  RH  062%=      5-min Rain = 0
KBY1 131041Z 00000KT M08/M14 A3027 RMK A01 T10781138  RH  062%=      5-min Rain = 0
KBY1 131042Z 00000KT M08/M14 A3027 RMK A01 T10771137  RH  062%=      5-min Rain = 0
KBY1 131043Z 00000KT M08/M14 A3027 RMK A01 T10771138  RH  061%=      5-min Rain = 0
KBY1 131044Z 00000KT M08/M14 A3027 RMK A01 T10771137  RH  062%=      5-min Rain = 0
KBY1 131045Z 00000KT M08/M14 A3027 RMK A01 T10761137  RH  062%=      5-min Rain = 0
KBY1 131046Z 00000KT M08/M14 A3027 RMK A01 T10771139  RH  061%=      5-min Rain = 0
KBY1 131047Z 02000KT M08/M14 A3027 RMK A01 T10771140  RH  061%=      5-min Rain = 0
KBY1 131048Z 02001KT M08/M14 A3027 RMK A01 T10791142  RH  061%=      5-min Rain = 0
KBY1 131049Z 02001KT M08/M14 A3027 RMK A01 T10791139  RH  062%=      5-min Rain = 0
KBY1 131050Z 02000KT M08/M13 A3027 RMK A01 T10761134  RH  063%=      5-min Rain = 0
KBY1 131051Z 00000KT M08/M14 A3027 RMK A01 T10751135  RH  062%=      5-min Rain = 0
KBY1 131052Z 00000KT M08/M14 A3027 RMK A01 T10751138  RH  061%=      5-min Rain = 0
KBY1 131053Z 00000KT M08/M14 A3026 RMK A01 T10761140  RH  060%=      5-min Rain = 0
KBY1 131054Z 00000KT M08/M14 A3026 RMK A01 T10761138  RH  061%=      5-min Rain = 0
KBY1 131055Z 00000KT M08/M14 A3026 RMK A01 T10761136  RH  062%=      5-min Rain = 0
KBY1 131056Z 00000KT M08/M14 A3026 RMK A01 T10751135  RH  062%=      5-min Rain = 0
KBY1 131057Z 00000KT M08/M14 A3026 RMK A01 T10751135  RH  062%=      5-min Rain = 0
KBY1 131058Z 00000KT M08/M14 A3026 RMK A01 T10751138  RH  061%=      5-min Rain = 0
KBY1 131059Z 00000KT M08/M14 A3026 RMK A01 T10761139  RH  061%=      5-min Rain = 0
KBY1 131100Z 00000KT M08/M14 A3026 RMK A01 T10771141  RH  060%=      5-min Rain = 0
KBY1 131101Z 00000KT M08/M14 A3027 RMK A01 T10791143  RH  060%=      5-min Rain = 0
KBY1 131102Z 00000KT M08/M15 A3027 RMK A01 T10811145  RH  060%=      5-min Rain = 0
KBY1 131103Z 00000KT M08/M15 A3027 RMK A01 T10841148  RH  060%=      5-min Rain = 0
KBY1 131104Z 06001KT M09/M15 A3027 RMK A01 T10861149  RH  060%=      5-min Rain = 0
KBY1 131105Z 05001KT M09/M15 A3027 RMK A01 T10871148  RH  061%=      5-min Rain = 0
KBY1 131106Z 04002KT M09/M15 A3027 RMK A01 T10871147  RH  062%=      5-min Rain = 0
KBY1 131107Z 04002KT M09/M15 A3027 RMK A01 T10871145  RH  063%=      5-min Rain = 0
KBY1 131108Z 05001KT M09/M14 A3027 RMK A01 T10881144  RH  064%=      5-min Rain = 0
KBY1 131109Z 06001KT M09/M14 A3027 RMK A01 T10871142  RH  065%=      5-min Rain = 0
KBY1 131110Z 07001KT M09/M14 A3027 RMK A01 T10861140  RH  065%=      5-min Rain = 0
KBY1 131111Z 07001KT M09/M14 A3027 RMK A01 T10861139  RH  065%=      5-min Rain = 0
KBY1 131112Z 07001KT M09/M14 A3027 RMK A01 T10851140  RH  065%=      5-min Rain = 0
KBY1 131113Z 08001KT M09/M14 A3027 RMK A01 T10851140  RH  064%=      5-min Rain = 0
KBY1 131114Z 08001KT M08/M14 A3027 RMK A01 T10841140  RH  064%=      5-min Rain = 0
KBY1 131115Z 08000KT M08/M14 A3027 RMK A01 T10841141  RH  063%=      5-min Rain = 0
KBY1 131116Z 00000KT M08/M14 A3027 RMK A01 T10831141  RH  063%=      5-min Rain = 0
KBY1 131117Z 00000KT M08/M14 A3027 RMK A01 T10831140  RH  064%=      5-min Rain = 0
KBY1 131118Z 00000KT M08/M14 A3027 RMK A01 T10821138  RH  064%=      5-min Rain = 0
KBY1 131119Z 00000KT M08/M14 A3027 RMK A01 T10811137  RH  064%=      5-min Rain = 0
KBY1 131120Z 00000KT M08/M14 A3027 RMK A01 T10801135  RH  065%=      5-min Rain = 0
KBY1 131121Z 00000KT M08/M13 A3027 RMK A01 T10791134  RH  065%=      5-min Rain = 0
KBY1 131122Z 00000KT M08/M13 A3027 RMK A01 T10781134  RH  064%=      5-min Rain = 0
KBY1 131123Z 00000KT M08/M14 A3027 RMK A01 T10781135  RH  063%=      5-min Rain = 0
KBY1 131124Z 00000KT M08/M14 A3027 RMK A01 T10781136  RH  063%=      5-min Rain = 0
KBY1 131125Z 00000KT M08/M14 A3027 RMK A01 T10791137  RH  063%=      5-min Rain = 0
KBY1 131126Z 00000KT M08/M14 A3027 RMK A01 T10801138  RH  063%=      5-min Rain = 0
KBY1 131127Z 00000KT M08/M14 A3027 RMK A01 T10811137  RH  064%=      5-min Rain = 0
KBY1 131128Z 00000KT M08/M14 A3027 RMK A01 T10801136  RH  064%=      5-min Rain = 0
KBY1 131129Z 35000KT M08/M14 A3027 RMK A01 T10801137  RH  064%=      5-min Rain = 0
KBY1 131130Z 35001KT M08/M14 A3027 RMK A01 T10801137  RH  064%=      5-min Rain = 0
KBY1 131131Z 35001KT M08/M14 A3027 RMK A01 T10801136  RH  064%=      5-min Rain = 0
KBY1 131132Z 34002KT M08/M14 A3027 RMK A01 T10791135  RH  065%=      5-min Rain = 0
KBY1 131133Z 34001KT M08/M14 A3027 RMK A01 T10791135  RH  064%=      5-min Rain = 0
KBY1 131134Z 00001KT M08/M14 A3027 RMK A01 T10791135  RH  064%=      5-min Rain = 0
KBY1 131135Z 01001KT M08/M14 A3027 RMK A01 T10791135  RH  064%=      5-min Rain = 0
KBY1 131136Z 03000KT M08/M14 A3027 RMK A01 T10791135  RH  064%=      5-min Rain = 0
KBY1 131137Z 00000KT M08/M14 A3027 RMK A01 T10791135  RH  064%=      5-min Rain = 0
KBY1 131138Z 00000KT M08/M14 A3027 RMK A01 T10791135  RH  064%=      5-min Rain = 0
KBY1 131139Z 00000KT M08/M14 A3027 RMK A01 T10791135  RH  064%=      5-min Rain = 0
KBY1 131140Z 00000KT M08/M14 A3027 RMK A01 T10801135  RH  064%=      5-min Rain = 0
KBY1 131141Z 00000KT M08/M14 A3027 RMK A01 T10811138  RH  063%=      5-min Rain = 0
KBY1 131142Z 00000KT M08/M14 A3027 RMK A01 T10821140  RH  063%=      5-min Rain = 0
KBY1 131143Z 02000KT M08/M14 A3027 RMK A01 T10831139  RH  064%=      5-min Rain = 0
KBY1 131144Z 02000KT M08/M14 A3027 RMK A01 T10831138  RH  064%=      5-min Rain = 0
KBY1 131145Z 00000KT M08/M14 A3027 RMK A01 T10831138  RH  065%=      5-min Rain = 0
KBY1 131146Z 00000KT M08/M14 A3027 RMK A01 T10831136  RH  065%=      5-min Rain = 0
KBY1 131147Z 00000KT M08/M14 A3027 RMK A01 T10821136  RH  065%=      5-min Rain = 0
KBY1 131148Z 00000KT M09/M14 A3027 RMK A01 T10851144  RH  062%=      5-min Rain = 0
KBY1 131149Z 00000KT M09/M15 A3027 RMK A01 T10891150  RH  061%=      5-min Rain = 0
KBY1 131150Z 00000KT M09/M15 A3027 RMK A01 T10921151  RH  062%=      5-min Rain = 0
KBY1 131151Z 00000KT M09/M15 A3027 RMK A01 T10931150  RH  063%=      5-min Rain = 0
KBY1 131152Z 22000KT M09/M15 A3027 RMK A01 T10941148  RH  064%=      5-min Rain = 0
KBY1 131153Z 22001KT M09/M15 A3027 RMK A01 T10941147  RH  065%=      5-min Rain = 0
KBY1 131154Z 22000KT M09/M15 A3027 RMK A01 T10941146  RH  066%=      5-min Rain = 0
KBY1 131155Z 23002KT M09/M14 A3027 RMK A01 T10921142  RH  067%=      5-min Rain = 0
KBY1 131156Z 23001KT M09/M14 A3027 RMK A01 T10911141  RH  067%=      5-min Rain = 0
KBY1 131157Z 24000KT M09/M14 A3027 RMK A01 T10911141  RH  067%=      5-min Rain = 0
KBY1 131158Z 00000KT M09/M14 A3027 RMK A01 T10911142  RH  066%=      5-min Rain = 0
KBY1 131159Z 00000KT M09/M14 A3027 RMK A01 T10911142  RH  066%=      5-min Rain = 0
KBY1 131200Z 00000KT M09/M14 A3027 RMK A01 T10911143  RH  066%=      5-min Rain = 0
KBY1 131201Z 00000KT M09/M15 A3027 RMK A01 T10921145  RH  065%=      5-min Rain = 0
KBY1 131202Z 00000KT M09/M15 A3028 RMK A01 T10931147  RH  065%=      5-min Rain = 0
KBY1 131203Z 00000KT M09/M15 A3028 RMK A01 T10931147  RH  065%=      5-min Rain = 0
KBY1 131204Z 00000KT M09/M15 A3027 RMK A01 T10941145  RH  066%=      5-min Rain = 0
KBY1 131205Z 00000KT M09/M14 A3027 RMK A01 T10931143  RH  067%=      5-min Rain = 0
KBY1 131206Z 00000KT M09/M14 A3027 RMK A01 T10931142  RH  068%=      5-min Rain = 0
KBY1 131207Z 00000KT M09/M14 A3027 RMK A01 T10921141  RH  068%=      5-min Rain = 0
KBY1 131208Z 00000KT M09/M14 A3027 RMK A01 T10921142  RH  067%=      5-min Rain = 0
KBY1 131209Z 00000KT M09/M14 A3027 RMK A01 T10921144  RH  066%=      5-min Rain = 0
KBY1 131210Z 00000KT M09/M15 A3027 RMK A01 T10941147  RH  065%=      5-min Rain = 0
KBY1 131211Z 00000KT M10/M15 A3027 RMK A01 T10951148  RH  065%=      5-min Rain = 0
KBY1 131212Z 00000KT M10/M15 A3027 RMK A01 T10961148  RH  066%=      5-min Rain = 0
KBY1 131213Z 00000KT M10/M15 A3027 RMK A01 T10981149  RH  067%=      5-min Rain = 0
KBY1 131214Z 24000KT M10/M15 A3027 RMK A01 T10991150  RH  067%=      5-min Rain = 0
KBY1 131215Z 24001KT M10/M15 A3027 RMK A01 T10991148  RH  067%=      5-min Rain = 0
KBY1 131216Z 24001KT M10/M15 A3027 RMK A01 T10991147  RH  068%=      5-min Rain = 0
KBY1 131217Z 27000KT M10/M15 A3027 RMK A01 T10981145  RH  068%=      5-min Rain = 0
KBY1 131218Z 00000KT M10/M15 A3028 RMK A01 T10961145  RH  068%=      5-min Rain = 0
KBY1 131219Z 00000KT M10/M14 A3028 RMK A01 T10961144  RH  068%=      5-min Rain = 0
KBY1 131220Z 34001KT M09/M14 A3028 RMK A01 T10941141  RH  069%=      5-min Rain = 0
KBY1 131221Z 35001KT M09/M14 A3028 RMK A01 T10921139  RH  069%=      5-min Rain = 0
KBY1 131222Z 35000KT M09/M14 A3028 RMK A01 T10921139  RH  068%=      5-min Rain = 0
KBY1 131223Z 00000KT M09/M14 A3028 RMK A01 T10911138  RH  069%=      5-min Rain = 0
KBY1 131224Z 35000KT M09/M14 A3028 RMK A01 T10901139  RH  068%=      5-min Rain = 0
KBY1 131225Z 00000KT M09/M14 A3028 RMK A01 T10901141  RH  067%=      5-min Rain = 0
KBY1 131226Z 00000KT M09/M14 A3028 RMK A01 T10901144  RH  065%=      5-min Rain = 0
KBY1 131227Z 00000KT M09/M15 A3028 RMK A01 T10911146  RH  064%=      5-min Rain = 0
KBY1 131228Z 00000KT M09/M15 A3027 RMK A01 T10931148  RH  064%=      5-min Rain = 0
KBY1 131229Z 00000KT M09/M15 A3027 RMK A01 T10941149  RH  064%=      5-min Rain = 0
KBY1 131230Z 00000KT M10/M15 A3027 RMK A01 T10961150  RH  065%=      5-min Rain = 0
KBY1 131231Z 00000KT M10/M15 A3028 RMK A01 T10961149  RH  065%=      5-min Rain = 0
KBY1 131232Z 00000KT M10/M15 A3028 RMK A01 T10971148  RH  066%=      5-min Rain = 0
KBY1 131233Z 00000KT M10/M15 A3028 RMK A01 T10961146  RH  067%=      5-min Rain = 0
KBY1 131234Z 00000KT M10/M14 A3028 RMK A01 T10951143  RH  068%=      5-min Rain = 0
KBY1 131235Z 00000KT M09/M14 A3027 RMK A01 T10931138  RH  070%=      5-min Rain = 0
KBY1 131236Z 35000KT M09/M14 A3027 RMK A01 T10921138  RH  069%=      5-min Rain = 0
KBY1 131237Z 00000KT M09/M14 A3027 RMK A01 T10911141  RH  067%=      5-min Rain = 0
KBY1 131238Z 00000KT M09/M14 A3027 RMK A01 T10921142  RH  067%=      5-min Rain = 0
KBY1 131239Z 04001KT M09/M14 A3027 RMK A01 T10921142  RH  067%=      5-min Rain = 0
KBY1 131240Z 04001KT M09/M14 A3028 RMK A01 T10901139  RH  068%=      5-min Rain = 0
KBY1 131241Z 04001KT M09/M14 A3028 RMK A01 T10891137  RH  068%=      5-min Rain = 0
KBY1 131242Z 04001KT M09/M14 A3028 RMK A01 T10871136  RH  068%=      5-min Rain = 0
KBY1 131243Z 04001KT M09/M14 A3028 RMK A01 T10861135  RH  067%=      5-min Rain = 0
KBY1 131244Z 06001KT M09/M14 A3028 RMK A01 T10851135  RH  067%=      5-min Rain = 0
KBY1 131245Z 08001KT M09/M14 A3028 RMK A01 T10851136  RH  067%=      5-min Rain = 0
KBY1 131246Z 10001KT M08/M14 A3028 RMK A01 T10841136  RH  066%=      5-min Rain = 0
KBY1 131247Z 10001KT M09/M14 A3028 RMK A01 T10851138  RH  065%=      5-min Rain = 0
KBY1 131248Z 10001KT M09/M14 A3028 RMK A01 T10861141  RH  064%=      5-min Rain = 0
KBY1 131249Z 10001KT M09/M14 A3028 RMK A01 T10861142  RH  064%=      5-min Rain = 0
KBY1 131250Z 08001KT M09/M14 A3028 RMK A01 T10871144  RH  064%=      5-min Rain = 0
KBY1 131251Z 08001KT M09/M15 A3027 RMK A01 T10881145  RH  064%=      5-min Rain = 0
KBY1 131252Z 07000KT M09/M15 A3027 RMK A01 T10901146  RH  064%=      5-min Rain = 0
KBY1 131253Z 07001KT M09/M15 A3027 RMK A01 T10911145  RH  064%=      5-min Rain = 0
KBY1 131254Z 07001KT M09/M15 A3027 RMK A01 T10911145  RH  065%=      5-min Rain = 0
KBY1 131255Z 07000KT M09/M15 A3027 RMK A01 T10921145  RH  065%=      5-min Rain = 0
KBY1 131256Z 08000KT M09/M15 A3027 RMK A01 T10931145  RH  065%=      5-min Rain = 0
KBY1 131257Z 08001KT M09/M14 A3027 RMK A01 T10931144  RH  066%=      5-min Rain = 0
KBY1 131258Z 08000KT M09/M14 A3027 RMK A01 T10931142  RH  067%=      5-min Rain = 0
KBY1 131259Z 08001KT M09/M14 A3027 RMK A01 T10931142  RH  068%=      5-min Rain = 0
KBY1 131300Z 07000KT M09/M14 A3028 RMK A01 T10931141  RH  068%=      5-min Rain = 0
KBY1 131301Z 00000KT M09/M14 A3028 RMK A01 T10931141  RH  068%=      5-min Rain = 0
KBY1 131302Z 00000KT M09/M14 A3028 RMK A01 T10931140  RH  068%=      5-min Rain = 0
KBY1 131303Z 00000KT M09/M14 A3028 RMK A01 T10921140  RH  068%=      5-min Rain = 0
KBY1 131304Z 05000KT M09/M14 A3028 RMK A01 T10911140  RH  068%=      5-min Rain = 0
KBY1 131305Z 07001KT M09/M14 A3028 RMK A01 T10911139  RH  068%=      5-min Rain = 0
KBY1 131306Z 07002KT M09/M14 A3028 RMK A01 T10911139  RH  068%=      5-min Rain = 0
KBY1 131307Z 08002KT M09/M14 A3028 RMK A01 T10911140  RH  067%=      5-min Rain = 0
KBY1 131308Z 08002KT M09/M14 A3028 RMK A01 T10911141  RH  067%=      5-min Rain = 0
KBY1 131309Z 08002KT M09/M14 A3028 RMK A01 T10911141  RH  067%=      5-min Rain = 0
KBY1 131310Z 06002KT M09/M14 A3029 RMK A01 T10911141  RH  067%=      5-min Rain = 0
KBY1 131311Z 06001KT M09/M14 A3029 RMK A01 T10911141  RH  067%=      5-min Rain = 0
KBY1 131312Z 06001KT M09/M14 A3029 RMK A01 T10911140  RH  067%=      5-min Rain = 0
KBY1 131313Z 06001KT M09/M14 A3028 RMK A01 T10911140  RH  068%=      5-min Rain = 0
KBY1 131314Z 05001KT M09/M14 A3028 RMK A01 T10901139  RH  068%=      5-min Rain = 0
KBY1 131315Z 05001KT M09/M14 A3028 RMK A01 T10901138  RH  068%=      5-min Rain = 0
KBY1 131316Z 05001KT M09/M14 A3028 RMK A01 T10891138  RH  068%=      5-min Rain = 0
KBY1 131317Z 04001KT M09/M14 A3028 RMK A01 T10881137  RH  068%=      5-min Rain = 0
KBY1 131318Z 06001KT M09/M14 A3028 RMK A01 T10871135  RH  068%=      5-min Rain = 0
KBY1 131319Z 07001KT M09/M14 A3028 RMK A01 T10871135  RH  068%=      5-min Rain = 0
KBY1 131320Z 07001KT M09/M14 A3028 RMK A01 T10861135  RH  068%=      5-min Rain = 0
KBY1 131321Z 07001KT M09/M14 A3028 RMK A01 T10861135  RH  068%=      5-min Rain = 0
KBY1 131322Z 07001KT M09/M14 A3028 RMK A01 T10861135  RH  068%=      5-min Rain = 0
KBY1 131323Z 07001KT M09/M14 A3028 RMK A01 T10861135  RH  067%=      5-min Rain = 0
KBY1 131324Z 07002KT M09/M14 A3028 RMK A01 T10861137  RH  067%=      5-min Rain = 0
KBY1 131325Z 05002KT M09/M14 A3028 RMK A01 T10861139  RH  066%=      5-min Rain = 0
KBY1 131326Z 04003KT M09/M14 A3028 RMK A01 T10871139  RH  066%=      5-min Rain = 0
KBY1 131327Z 05003KT M09/M14 A3028 RMK A01 T10881139  RH  066%=      5-min Rain = 0
KBY1 131328Z 06003KT M09/M14 A3029 RMK A01 T10871138  RH  067%=      5-min Rain = 0
KBY1 131329Z 07003KT M09/M14 A3029 RMK A01 T10861135  RH  068%=      5-min Rain = 0
KBY1 131330Z 08003KT M08/M13 A3029 RMK A01 T10841133  RH  068%=      5-min Rain = 0
KBY1 131331Z 09003KT M08/M13 A3029 RMK A01 T10831134  RH  067%=      5-min Rain = 0
KBY1 131332Z 09004KT M09/M14 A3028 RMK A01 T10851138  RH  066%=      5-min Rain = 0
KBY1 131333Z 10004KT M09/M14 A3028 RMK A01 T10871138  RH  066%=      5-min Rain = 0
KBY1 131334Z 10004KT M09/M14 A3028 RMK A01 T10871138  RH  067%=      5-min Rain = 0
KBY1 131335Z 10004KT M09/M14 A3028 RMK A01 T10881138  RH  067%=      5-min Rain = 0
KBY1 131336Z 10003KT M09/M14 A3028 RMK A01 T10891139  RH  067%=      5-min Rain = 0
KBY1 131337Z 11003KT M09/M14 A3028 RMK A01 T10901139  RH  068%=      5-min Rain = 0
KBY1 131338Z 09003KT M09/M14 A3028 RMK A01 T10911139  RH  068%=      5-min Rain = 0
KBY1 131339Z 07001KT M09/M14 A3028 RMK A01 T10921139  RH  069%=      5-min Rain = 0
KBY1 131340Z 08001KT M09/M14 A3028 RMK A01 T10931139  RH  069%=      5-min Rain = 0
KBY1 131341Z 08001KT M09/M14 A3028 RMK A01 T10931138  RH  070%=      5-min Rain = 0
KBY1 131342Z 07001KT M09/M14 A3028 RMK A01 T10931137  RH  070%=      5-min Rain = 0
KBY1 131343Z 07001KT M09/M14 A3028 RMK A01 T10921136  RH  070%=      5-min Rain = 0
KBY1 131344Z 05001KT M09/M14 A3029 RMK A01 T10911136  RH  070%=      5-min Rain = 0
KBY1 131345Z 05001KT M09/M14 A3029 RMK A01 T10911136  RH  070%=      5-min Rain = 0
KBY1 131346Z 06001KT M09/M14 A3029 RMK A01 T10901135  RH  070%=      5-min Rain = 0
KBY1 131347Z 07002KT M09/M14 A3029 RMK A01 T10901135  RH  070%=      5-min Rain = 0
KBY1 131348Z 06001KT M09/M13 A3028 RMK A01 T10891134  RH  070%=      5-min Rain = 0
KBY1 131349Z 06001KT M09/M13 A3028 RMK A01 T10881133  RH  070%=      5-min Rain = 0
KBY1 131350Z 07002KT M09/M13 A3028 RMK A01 T10881133  RH  070%=      5-min Rain = 0
KBY1 131351Z 07002KT M09/M13 A3028 RMK A01 T10871133  RH  070%=      5-min Rain = 0
KBY1 131352Z 05002KT M09/M13 A3028 RMK A01 T10871133  RH  069%=      5-min Rain = 0
KBY1 131353Z 05002KT M09/M13 A3029 RMK A01 T10861132  RH  069%=      5-min Rain = 0
KBY1 131354Z 06003KT M09/M13 A3029 RMK A01 T10851132  RH  069%=      5-min Rain = 0
KBY1 131355Z 07003KT M08/M13 A3028 RMK A01 T10841132  RH  069%=      5-min Rain = 0
KBY1 131356Z 07003KT M08/M13 A3029 RMK A01 T10831131  RH  068%=      5-min Rain = 0
KBY1 131357Z 08003KT M08/M13 A3029 RMK A01 T10831131  RH  068%=      5-min Rain = 0
KBY1 131358Z 07003KT M08/M13 A3029 RMK A01 T10831131  RH  068%=      5-min Rain = 0
KBY1 131359Z 07003KT M08/M13 A3029 RMK A01 T10821130  RH  068%=      5-min Rain = 0
KBY1 131400Z 07003KT M08/M13 A3029 RMK A01 T10811130  RH  068%=      5-min Rain = 0
KBY1 131401Z 06003KT M08/M13 A3029 RMK A01 T10811129  RH  068%=      5-min Rain = 0
KBY1 131402Z 06003KT M08/M13 A3029 RMK A01 T10791128  RH  068%=      5-min Rain = 0
KBY1 131403Z 05003KT M08/M13 A3029 RMK A01 T10771127  RH  068%=      5-min Rain = 0
KBY1 131404Z 06003KT M08/M13 A3029 RMK A01 T10761126  RH  067%=      5-min Rain = 0
KBY1 131405Z 07003KT M08/M13 A3029 RMK A01 T10751126  RH  066%=      5-min Rain = 0
KBY1 131406Z 08004KT M07/M13 A3029 RMK A01 T10731126  RH  066%=      5-min Rain = 0
KBY1 131407Z 08004KT M07/M13 A3028 RMK A01 T10731126  RH  066%=      5-min Rain = 0
KBY1 131408Z 07003KT M07/M13 A3028 RMK A01 T10731127  RH  065%=      5-min Rain = 0
KBY1 131409Z 07004KT M07/M13 A3028 RMK A01 T10731127  RH  065%=      5-min Rain = 0
KBY1 131410Z 06003KT M07/M13 A3029 RMK A01 T10731127  RH  065%=      5-min Rain = 0
KBY1 131411Z 05003KT M07/M13 A3029 RMK A01 T10731126  RH  066%=      5-min Rain = 0
KBY1 131412Z 03003KT M07/M12 A3029 RMK A01 T10711124  RH  066%=      5-min Rain = 0
KBY1 131413Z 03003KT M07/M12 A3029 RMK A01 T10691123  RH  066%=      5-min Rain = 0
KBY1 131414Z 03003KT M07/M12 A3029 RMK A01 T10671122  RH  065%=      5-min Rain = 0
KBY1 131415Z 04004KT M07/M12 A3029 RMK A01 T10661121  RH  065%=      5-min Rain = 0
KBY1 131416Z 04004KT M07/M12 A3029 RMK A01 T10651122  RH  064%=      5-min Rain = 0
KBY1 131417Z 06004KT M06/M12 A3029 RMK A01 T10641122  RH  064%=      5-min Rain = 0
KBY1 131418Z 07004KT M06/M12 A3029 RMK A01 T10631121  RH  063%=      5-min Rain = 0
KBY1 131419Z 06004KT M06/M12 A3029 RMK A01 T10621121  RH  063%=      5-min Rain = 0
KBY1 131420Z 06003KT M06/M12 A3029 RMK A01 T10611120  RH  063%=      5-min Rain = 0
KBY1 131421Z 07003KT M06/M12 A3029 RMK A01 T10601120  RH  063%=      5-min Rain = 0
KBY1 131422Z 06003KT M06/M12 A3029 RMK A01 T10591119  RH  062%=      5-min Rain = 0
KBY1 131423Z 06003KT M06/M12 A3029 RMK A01 T10581119  RH  062%=      5-min Rain = 0
KBY1 131424Z 07004KT M06/M12 A3029 RMK A01 T10571119  RH  061%=      5-min Rain = 0
KBY1 131425Z 06003KT M06/M12 A303 RMK A01 T10561119  RH  061%=      5-min Rain = 0
KBY1 131426Z 07003KT M05/M12 A303 RMK A01 T10541119  RH  060%=      5-min Rain = 0
KBY1 131427Z 08004KT M05/M12 A303 RMK A01 T10531118  RH  060%=      5-min Rain = 0
KBY1 131428Z 07004KT M05/M12 A303 RMK A01 T10521118  RH  060%=      5-min Rain = 0
KBY1 131429Z 08005KT M05/M12 A303 RMK A01 T10511119  RH  059%=      5-min Rain = 0
KBY1 131430Z 08005KT M05/M12 A303 RMK A01 T10501119  RH  059%=      5-min Rain = 0
KBY1 131431Z 08005KT M05/M12 A303 RMK A01 T10501118  RH  059%=      5-min Rain = 0
KBY1 131432Z 09005KT M05/M12 A303 RMK A01 T10491118  RH  058%=      5-min Rain = 0
KBY1 131433Z 09005KT M05/M12 A303 RMK A01 T10481118  RH  058%=      5-min Rain = 0
KBY1 131434Z 08006KT M05/M12 A303 RMK A01 T10471117  RH  058%=      5-min Rain = 0
KBY1 131435Z 08005KT M05/M12 A303 RMK A01 T10461117  RH  058%=      5-min Rain = 0
KBY1 131436Z 07005KT M05/M12 A303 RMK A01 T10451116  RH  058%=      5-min Rain = 0
KBY1 131437Z 08005KT M04/M12 A303 RMK A01 T10441116  RH  057%=      5-min Rain = 0
KBY1 131438Z 07005KT M04/M12 A303 RMK A01 T10431116  RH  057%=      5-min Rain = 0
KBY1 131439Z 07004KT M04/M12 A303 RMK A01 T10431117  RH  057%=      5-min Rain = 0
KBY1 131440Z 07005KT M04/M12 A303 RMK A01 T10421116  RH  057%=      5-min Rain = 0
KBY1 131441Z 07005KT M04/M12 A303 RMK A01 T10421116  RH  056%=      5-min Rain = 0
KBY1 131442Z 08005KT M04/M12 A303 RMK A01 T10411116  RH  056%=      5-min Rain = 0
KBY1 131443Z 09005KT M04/M12 A3031 RMK A01 T10411115  RH  056%=      5-min Rain = 0
KBY1 131444Z 09006KT M04/M12 A303 RMK A01 T10401115  RH  056%=      5-min Rain = 0
KBY1 131445Z 09005KT M04/M12 A303 RMK A01 T10401115  RH  056%=      5-min Rain = 0
KBY1 131446Z 09004KT M04/M11 A303 RMK A01 T10391114  RH  056%=      5-min Rain = 0
KBY1 131447Z 09004KT M04/M11 A303 RMK A01 T10361113  RH  055%=      5-min Rain = 0
KBY1 131448Z 09005KT M04/M11 A303 RMK A01 T10351113  RH  055%=      5-min Rain = 0
KBY1 131449Z 09004KT M04/M11 A303 RMK A01 T10351113  RH  055%=      5-min Rain = 0
KBY1 131450Z 09004KT M03/M11 A303 RMK A01 T10331112  RH  054%=      5-min Rain = 0
KBY1 131451Z 10006KT M03/M11 A303 RMK A01 T10321112  RH  054%=      5-min Rain = 0
KBY1 131452Z 09005KT M03/M11 A303 RMK A01 T10321113  RH  053%=      5-min Rain = 0
KBY1 131453Z 09004KT M03/M11 A3031 RMK A01 T10321113  RH  054%=      5-min Rain = 0
KBY1 131454Z 09005KT M03/M11 A3031 RMK A01 T10311112  RH  053%=      5-min Rain = 0
KBY1 131455Z 09005KT M03/M11 A3031 RMK A01 T10301112  RH  053%=      5-min Rain = 0
KBY1 131456Z 09005KT M03/M11 A3031 RMK A01 T10301113  RH  053%=      5-min Rain = 0
KBY1 131457Z 09004KT M03/M11 A303 RMK A01 T10301113  RH  053%=      5-min Rain = 0
KBY1 131458Z 09005KT M03/M11 A303 RMK A01 T10301112  RH  053%=      5-min Rain = 0
KBY1 131459Z 10005KT M03/M11 A303 RMK A01 T10281111  RH  053%=      5-min Rain = 0
KBY1 131500Z 10004KT M03/M11 A303 RMK A01 T10261109  RH  053%=      5-min Rain = 0
KBY1 131501Z 09004KT M02/M11 A303 RMK A01 T10231108  RH  052%=      5-min Rain = 0
KBY1 131502Z 10005KT M02/M11 A303 RMK A01 T10211108  RH  051%=      5-min Rain = 0
KBY1 131503Z 10005KT M02/M11 A303 RMK A01 T10211109  RH  051%=      5-min Rain = 0
KBY1 131504Z 11005KT M02/M11 A303 RMK A01 T10211109  RH  051%=      5-min Rain = 0
KBY1 131505Z 09005KT M02/M11 A303 RMK A01 T10211108  RH  051%=      5-min Rain = 0
KBY1 131506Z 11006KT M02/M11 A303 RMK A01 T10191107  RH  051%=      5-min Rain = 0
KBY1 131507Z 10004KT M02/M11 A303 RMK A01 T10181107  RH  051%=      5-min Rain = 0
KBY1 131508Z 10004KT M02/M11 A303 RMK A01 T10171106  RH  051%=      5-min Rain = 0
KBY1 131509Z 11005KT M01/M10 A303 RMK A01 T10141104  RH  050%=      5-min Rain = 0
KBY1 131510Z 10005KT M01/M10 A303 RMK A01 T10121104  RH  050%=      5-min Rain = 0
KBY1 131511Z 10005KT M01/M10 A303 RMK A01 T10111104  RH  049%=      5-min Rain = 0
KBY1 131512Z 09006KT M01/M10 A303 RMK A01 T10091103  RH  049%=      5-min Rain = 0
KBY1 131513Z 10005KT M01/M10 A303 RMK A01 T10091104  RH  049%=      5-min Rain = 0
KBY1 131514Z 10005KT M01/M10 A303 RMK A01 T10091104  RH  049%=      5-min Rain = 0
KBY1 131515Z 11005KT M01/M10 A303 RMK A01 T10081103  RH  049%=      5-min Rain = 0
KBY1 131516Z 12004KT M01/M10 A303 RMK A01 T10061101  RH  048%=      5-min Rain = 0
KBY1 131517Z 11004KT M00/M10 A303 RMK A01 T10031100  RH  048%=      5-min Rain = 0
KBY1 131518Z 12004KT 00/10 A303 RMK A01 T00-00-99  RH  047%=      5-min Rain = 0
KBY1 131519Z 12004KT 00/M10 A303 RMK A01 T00011100  RH  047%=      5-min Rain = 0
KBY1 131520Z 12005KT 00/M10 A303 RMK A01 T00011101  RH  046%=      5-min Rain = 0
KBY1 131521Z 12005KT 00/M10 A303 RMK A01 T00011101  RH  046%=      5-min Rain = 0
KBY1 131522Z 12005KT 00/10 A303 RMK A01 T00-00-102  RH  046%=      5-min Rain = 0
KBY1 131523Z 13005KT M00/M10 A303 RMK A01 T10011102  RH  047%=      5-min Rain = 0
KBY1 131524Z 12004KT M00/M10 A303 RMK A01 T10011101  RH  047%=      5-min Rain = 0
KBY1 131525Z 12004KT 00/10 A303 RMK A01 T00-00-100  RH  047%=      5-min Rain = 0
KBY1 131526Z 12003KT 00/M10 A303 RMK A01 T00021099  RH  047%=      5-min Rain = 0
KBY1 131527Z 12004KT 00/M10 A303 RMK A01 T00031099  RH  046%=      5-min Rain = 0
KBY1 131528Z 13003KT 00/M10 A303 RMK A01 T00031100  RH  046%=      5-min Rain = 0
KBY1 131529Z 12004KT 01/M10 A303 RMK A01 T00051099  RH  046%=      5-min Rain = 0
KBY1 131530Z 12004KT 01/M10 A303 RMK A01 T00071098  RH  045%=      5-min Rain = 0
KBY1 131531Z 11004KT 01/M10 A303 RMK A01 T00071099  RH  045%=      5-min Rain = 0
KBY1 131532Z 10004KT 01/M10 A303 RMK A01 T00071099  RH  045%=      5-min Rain = 0
KBY1 131533Z 10004KT 01/M10 A303 RMK A01 T00071099  RH  045%=      5-min Rain = 0
KBY1 131534Z 11004KT 01/M10 A303 RMK A01 T00091098  RH  045%=      5-min Rain = 0
KBY1 131535Z 12003KT 01/M10 A303 RMK A01 T00121096  RH  044%=      5-min Rain = 0
KBY1 131536Z 12004KT 01/M10 A303 RMK A01 T00141096  RH  044%=      5-min Rain = 0
KBY1 131537Z 12004KT 01/M10 A303 RMK A01 T00141097  RH  043%=      5-min Rain = 0
KBY1 131538Z 12004KT 02/M10 A3029 RMK A01 T00151096  RH  043%=      5-min Rain = 0
KBY1 131539Z 11004KT 02/M10 A3029 RMK A01 T00161096  RH  043%=      5-min Rain = 0
KBY1 131540Z 14004KT 02/M10 A303 RMK A01 T00171096  RH  043%=      5-min Rain = 0
KBY1 131541Z 12005KT 02/M10 A303 RMK A01 T00181095  RH  043%=      5-min Rain = 0
KBY1 131542Z 12005KT 02/M10 A3029 RMK A01 T00181097  RH  042%=      5-min Rain = 0
KBY1 131543Z 13004KT 02/M10 A3029 RMK A01 T00181097  RH  042%=      5-min Rain = 0
KBY1 131544Z 13004KT 02/M10 A303 RMK A01 T00201095  RH  042%=      5-min Rain = 0
KBY1 131545Z 13004KT 02/M09 A303 RMK A01 T00231093  RH  042%=      5-min Rain = 0
KBY1 131546Z 13005KT 03/M09 A303 RMK A01 T00251094  RH  041%=      5-min Rain = 0
KBY1 131547Z 15005KT 03/M09 A303 RMK A01 T00261094  RH  041%=      5-min Rain = 0
KBY1 131548Z 16005KT 03/M09 A303 RMK A01 T00251094  RH  041%=      5-min Rain = 0
KBY1 131549Z 14004KT 03/M09 A303 RMK A01 T00261094  RH  041%=      5-min Rain = 0
KBY1 131550Z 13004KT 03/M09 A303 RMK A01 T00271093  RH  041%=      5-min Rain = 0
KBY1 131551Z 12004KT 03/M09 A303 RMK A01 T00281093  RH  041%=      5-min Rain = 0
KBY1 131552Z 12004KT 03/M09 A303 RMK A01 T00291093  RH  040%=      5-min Rain = 0
KBY1 131553Z 12004KT 03/M09 A303 RMK A01 T00301093  RH  040%=      5-min Rain = 0
KBY1 131554Z 12003KT 03/M09 A303 RMK A01 T00311092  RH  040%=      5-min Rain = 0
KBY1 131555Z 14003KT 03/M09 A303 RMK A01 T00331092  RH  040%=      5-min Rain = 0
KBY1 131556Z 16003KT 03/M09 A303 RMK A01 T00331092  RH  039%=      5-min Rain = 0
KBY1 131557Z 16003KT 04/M09 A303 RMK A01 T00351091  RH  039%=      5-min Rain = 0
KBY1 131558Z 16005KT 04/M09 A303 RMK A01 T00361090  RH  039%=      5-min Rain = 0
KBY1 131559Z 14004KT 04/M09 A303 RMK A01 T00371091  RH  039%=      5-min Rain = 0
KBY1 131600Z 14005KT 04/M09 A303 RMK A01 T00381090  RH  039%=      5-min Rain = 0
KBY1 131601Z 14004KT 04/M09 A303 RMK A01 T00381091  RH  038%=      5-min Rain = 0
KBY1 131602Z 15004KT 04/M09 A303 RMK A01 T00381090  RH  039%=      5-min Rain = 0
KBY1 131603Z 14004KT 04/M09 A303 RMK A01 T00391089  RH  039%=      5-min Rain = 0
KBY1 131604Z 14004KT 04/M09 A303 RMK A01 T00391090  RH  038%=      5-min Rain = 0
KBY1 131605Z 14006KT 04/M09 A303 RMK A01 T00411088  RH  038%=      5-min Rain = 0
KBY1 131606Z 15006KT 04/M09 A303 RMK A01 T00431087  RH  038%=      5-min Rain = 0
KBY1 131607Z 16005KT 04/M09 A303 RMK A01 T00441086  RH  038%=      5-min Rain = 0
KBY1 131608Z 17004KT 05/M09 A303 RMK A01 T00451086  RH  038%=      5-min Rain = 0
KBY1 131609Z 15006KT 05/M08 A303 RMK A01 T00461084  RH  038%=      5-min Rain = 0
KBY1 131610Z 17006KT 05/M09 A303 RMK A01 T00471085  RH  038%=      5-min Rain = 0
KBY1 131611Z 17004KT 05/M09 A303 RMK A01 T00461086  RH  038%=      5-min Rain = 0
KBY1 131612Z 19004KT 05/M09 A303 RMK A01 T00451085  RH  038%=      5-min Rain = 0
KBY1 131613Z 17005KT 05/M08 A303 RMK A01 T00451084  RH  039%=      5-min Rain = 0
KBY1 131614Z 19007KT 05/M08 A303 RMK A01 T00471081  RH  039%=      5-min Rain = 0
KBY1 131615Z 18008KT 05/M08 A303 RMK A01 T00501078  RH  039%=      5-min Rain = 0
KBY1 131616Z 19006KT 05/M08 A303 RMK A01 T00501078  RH  039%=      5-min Rain = 0
KBY1 131617Z 19007KT 05/M08 A303 RMK A01 T00501078  RH  039%=      5-min Rain = 0
KBY1 131618Z 19004KT 05/M08 A303 RMK A01 T00491079  RH  039%=      5-min Rain = 0
KBY1 131619Z 17004KT 05/M08 A303 RMK A01 T00481079  RH  039%=      5-min Rain = 0
KBY1 131620Z 15004KT 05/M08 A303 RMK A01 T00491080  RH  039%=      5-min Rain = 0
KBY1 131621Z 16007KT 05/M08 A303 RMK A01 T00501079  RH  039%=      5-min Rain = 0
KBY1 131622Z 18006KT 05/M08 A303 RMK A01 T00521079  RH  038%=      5-min Rain = 0
KBY1 131623Z 17007KT 05/M08 A303 RMK A01 T00531078  RH  038%=      5-min Rain = 0
KBY1 131624Z 16007KT 05/M08 A303 RMK A01 T00541078  RH  038%=      5-min Rain = 0
KBY1 131625Z 17007KT 05/M08 A303 RMK A01 T00541077  RH  038%=      5-min Rain = 0
KBY1 131626Z 18007KT 05/M08 A303 RMK A01 T00541077  RH  038%=      5-min Rain = 0
KBY1 131627Z 17006KT 05/M08 A303 RMK A01 T00541077  RH  038%=      5-min Rain = 0
KBY1 131628Z 17005KT 05/M08 A303 RMK A01 T00541076  RH  039%=      5-min Rain = 0
KBY1 131629Z 18006KT 05/M08 A303 RMK A01 T00541076  RH  039%=      5-min Rain = 0
KBY1 131630Z 19006KT 06/M08 A3029 RMK A01 T00551075  RH  039%=      5-min Rain = 0
KBY1 131631Z 17006KT 06/M08 A3029 RMK A01 T00561075  RH  038%=      5-min Rain = 0
KBY1 131632Z 17008KT 06/M07 A3029 RMK A01 T00581073  RH  038%=      5-min Rain = 0
KBY1 131633Z 19007KT 06/M07 A3029 RMK A01 T00601073  RH  038%=      5-min Rain = 0
KBY1 131634Z 21007KT 06/M07 A3029 RMK A01 T00591073  RH  038%=      5-min Rain = 0
KBY1 131635Z 21006KT 06/M07 A3029 RMK A01 T00601073  RH  038%=      5-min Rain = 0
KBY1 131636Z 18007KT 06/M07 A3029 RMK A01 T00601073  RH  038%=      5-min Rain = 0
KBY1 131637Z 18008KT 06/M07 A3029 RMK A01 T00611072  RH  038%=      5-min Rain = 0
KBY1 131638Z 18007KT 06/M07 A303 RMK A01 T00621073  RH  038%=      5-min Rain = 0
KBY1 131639Z 17007KT 06/M07 A303 RMK A01 T00631072  RH  037%=      5-min Rain = 0
KBY1 131640Z 21007KT 07/M07 A303 RMK A01 T00661070  RH  037%=      5-min Rain = 0
KBY1 131641Z 21005KT 07/M07 A303 RMK A01 T00691067  RH  037%=      5-min Rain = 0
KBY1 131642Z 20008KT 07/M07 A303 RMK A01 T00711067  RH  037%=      5-min Rain = 0
KBY1 131643Z 20008KT 07/M07 A303 RMK A01 T00711068  RH  036%=      5-min Rain = 0
KBY1 131644Z 20006KT 07/M07 A3029 RMK A01 T00701069  RH  036%=      5-min Rain = 0
KBY1 131645Z 19007KT 07/M07 A303 RMK A01 T00691070  RH  036%=      5-min Rain = 0
KBY1 131646Z 18007KT 07/M07 A3029 RMK A01 T00691070  RH  036%=      5-min Rain = 0
KBY1 131647Z 17005KT 07/M07 A3029 RMK A01 T00691070  RH  036%=      5-min Rain = 0
KBY1 131648Z 17006KT 07/M07 A3029 RMK A01 T00701069  RH  037%=      5-min Rain = 0
KBY1 131649Z 18005KT 07/M07 A3029 RMK A01 T00701069  RH  036%=      5-min Rain = 0
KBY1 131650Z 19006KT 07/M07 A3029 RMK A01 T00711068  RH  037%=      5-min Rain = 0
KBY1 131651Z 21007KT 07/M07 A3029 RMK A01 T00721067  RH  037%=      5-min Rain = 0
KBY1 131652Z 21009KT 07/M07 A3029 RMK A01 T00721066  RH  037%=      5-min Rain = 0
KBY1 131653Z 20008KT 07/M07 A303 RMK A01 T00721066  RH  037%=      5-min Rain = 0
KBY1 131654Z 21007KT 07/M07 A303 RMK A01 T00701066  RH  037%=      5-min Rain = 0
KBY1 131655Z 22006KT 07/M07 A303 RMK A01 T00691066  RH  038%=      5-min Rain = 0
KBY1 131656Z 24005KT 07/M07 A303 RMK A01 T00691065  RH  038%=      5-min Rain = 0
KBY1 131657Z 20007KT 07/M06 A303 RMK A01 T00701064  RH  038%=      5-min Rain = 0
KBY1 131658Z 21005KT 07/M06 A303 RMK A01 T00731064  RH  037%=      5-min Rain = 0
KBY1 131659Z 22003KT 07/M06 A303 RMK A01 T00731064  RH  037%=      5-min Rain = 0
KBY1 131700Z 22002KT 07/M06 A303 RMK A01 T00731064  RH  037%=      5-min Rain = 0
KBY1 131701Z 19004KT 07/M06 A303 RMK A01 T00741063  RH  037%=      5-min Rain = 0
KBY1 131702Z 22004KT 08/M06 A303 RMK A01 T00751063  RH  037%=      5-min Rain = 0
KBY1 131703Z 19003KT 08/M06 A303 RMK A01 T00761064  RH  036%=      5-min Rain = 0
KBY1 131704Z 17004KT 08/M06 A3029 RMK A01 T00771063  RH  036%=      5-min Rain = 0
KBY1 131705Z 19006KT 08/M06 A3029 RMK A01 T00801062  RH  036%=      5-min Rain = 0
KBY1 131706Z 18006KT 08/M06 A3029 RMK A01 T00811062  RH  036%=      5-min Rain = 0
KBY1 131707Z 20005KT 08/M06 A3029 RMK A01 T00811063  RH  036%=      5-min Rain = 0
KBY1 131708Z 23006KT 08/M06 A3029 RMK A01 T00811061  RH  036%=      5-min Rain = 0
KBY1 131709Z 24004KT 08/M06 A3029 RMK A01 T00811059  RH  036%=      5-min Rain = 0
KBY1 131710Z 25006KT 08/M06 A3029 RMK A01 T00831058  RH  036%=      5-min Rain = 0
KBY1 131711Z 24006KT 08/M06 A3029 RMK A01 T00841058  RH  036%=      5-min Rain = 0
KBY1 131712Z 23003KT 08/M06 A3029 RMK A01 T00841059  RH  036%=      5-min Rain = 0
KBY1 131713Z 23006KT 08/M06 A3029 RMK A01 T00831060  RH  036%=      5-min Rain = 0
KBY1 131714Z 21008KT 08/M06 A3029 RMK A01 T00831058  RH  036%=      5-min Rain = 0
KBY1 131715Z 20007KT 09/M06 A3029 RMK A01 T00851058  RH  036%=      5-min Rain = 0
KBY1 131716Z 21005KT 08/M06 A3029 RMK A01 T00841059  RH  036%=      5-min Rain = 0
KBY1 131717Z 23005KT 08/M06 A3029 RMK A01 T00841058  RH  036%=      5-min Rain = 0
KBY1 131718Z 26008KT 09/M06 A3029 RMK A01 T00861058  RH  036%=      5-min Rain = 0
KBY1 131719Z 24005KT 09/M06 A3029 RMK A01 T00851059  RH  036%=      5-min Rain = 0
KBY1 131720Z 24007KT 08/M06 A3029 RMK A01 T00831059  RH  036%=      5-min Rain = 0
KBY1 131721Z 26007KT 08/M06 A3029 RMK A01 T00831059  RH  036%=      5-min Rain = 0
KBY1 131722Z 26005KT 08/M06 A3028 RMK A01 T00831060  RH  036%=      5-min Rain = 0
KBY1 131723Z 23003KT 08/M06 A3028 RMK A01 T00831060  RH  036%=      5-min Rain = 0
KBY1 131724Z 22002KT 08/M06 A3028 RMK A01 T00831061  RH  036%=      5-min Rain = 0
KBY1 131725Z 24005KT 08/M06 A3028 RMK A01 T00841060  RH  036%=      5-min Rain = 0
KBY1 131726Z 26003KT 08/M06 A3028 RMK A01 T00831061  RH  035%=      5-min Rain = 0
KBY1 131727Z 24006KT 08/M06 A3028 RMK A01 T00831059  RH  036%=      5-min Rain = 0
KBY1 131728Z 24006KT 09/M06 A3028 RMK A01 T00861057  RH  036%=      5-min Rain = 0
KBY1 131729Z 25005KT 09/M06 A3028 RMK A01 T00871057  RH  036%=      5-min Rain = 0
KBY1 131730Z 23007KT 09/M06 A3028 RMK A01 T00891056  RH  035%=      5-min Rain = 0
KBY1 131731Z 20006KT 09/M06 A3028 RMK A01 T00891058  RH  035%=      5-min Rain = 0
KBY1 131732Z 16004KT 09/M06 A3028 RMK A01 T00881058  RH  035%=      5-min Rain = 0
KBY1 131733Z 18002KT 09/M06 A3028 RMK A01 T00871059  RH  035%=      5-min Rain = 0
KBY1 131734Z 16002KT 09/M06 A3028 RMK A01 T00881057  RH  035%=      5-min Rain = 0
KBY1 131735Z 14002KT 09/M06 A3028 RMK A01 T00901057  RH  035%=      5-min Rain = 0
KBY1 131736Z 31002KT 09/M06 A3028 RMK A01 T00911057  RH  035%=      5-min Rain = 0
KBY1 131737Z 23007KT 09/M05 A3028 RMK A01 T00931054  RH  035%=      5-min Rain = 0
KBY1 131738Z 24006KT 10/M05 A3028 RMK A01 T00961051  RH  035%=      5-min Rain = 0
KBY1 131739Z 22006KT 10/M05 A3028 RMK A01 T00971053  RH  034%=      5-min Rain = 0
KBY1 131740Z 25006KT 10/M05 A3028 RMK A01 T00981051  RH  035%=      5-min Rain = 0
KBY1 131741Z 27006KT 10/M05 A3028 RMK A01 T01001053  RH  034%=      5-min Rain = 0
KBY1 131742Z 26006KT 10/M05 A3028 RMK A01 T01001053  RH  034%=      5-min Rain = 0
KBY1 131743Z 23005KT 10/M05 A3028 RMK A01 T00991054  RH  034%=      5-min Rain = 0
KBY1 131744Z 22004KT 10/M05 A3028 RMK A01 T00981054  RH  034%=      5-min Rain = 0
KBY1 131745Z 22007KT 10/M05 A3027 RMK A01 T00971053  RH  034%=      5-min Rain = 0
KBY1 131746Z 24007KT 10/M05 A3027 RMK A01 T00991052  RH  034%=      5-min Rain = 0
KBY1 131747Z 25007KT 10/M05 A3027 RMK A01 T01011052  RH  034%=      5-min Rain = 0
KBY1 131748Z 24005KT 10/M05 A3027 RMK A01 T01001053  RH  034%=      5-min Rain = 0
KBY1 131749Z 22004KT 10/M05 A3027 RMK A01 T01001053  RH  034%=      5-min Rain = 0
KBY1 131750Z 23008KT 10/M05 A3027 RMK A01 T01011051  RH  034%=      5-min Rain = 0
KBY1 131751Z 23007KT 10/M05 A3027 RMK A01 T01041049  RH  034%=      5-min Rain = 0
KBY1 131752Z 22005KT 10/M05 A3027 RMK A01 T01031051  RH  033%=      5-min Rain = 0
KBY1 131753Z 21005KT 10/M05 A3027 RMK A01 T01031051  RH  033%=      5-min Rain = 0
KBY1 131754Z 24008KT 10/M05 A3027 RMK A01 T01031051  RH  033%=      5-min Rain = 0
KBY1 131755Z 24003KT 11/M05 A3027 RMK A01 T01051051  RH  033%=      5-min Rain = 0
KBY1 131756Z 24006KT 11/M05 A3027 RMK A01 T01051051  RH  033%=      5-min Rain = 0
KBY1 131757Z 23006KT 11/M05 A3026 RMK A01 T01071049  RH  033%=      5-min Rain = 0
KBY1 131758Z 24005KT 11/M05 A3026 RMK A01 T01071051  RH  033%=      5-min Rain = 0
KBY1 131759Z 23006KT 11/M05 A3026 RMK A01 T01071051  RH  033%=      5-min Rain = 0
KBY1 131800Z 23006KT 11/M05 A3026 RMK A01 T01071049  RH  033%=      5-min Rain = 0
KBY1 131801Z 26006KT 11/M05 A3026 RMK A01 T01111047  RH  033%=      5-min Rain = 0
KBY1 131802Z 24007KT 11/M05 A3026 RMK A01 T01121049  RH  032%=      5-min Rain = 0
KBY1 131803Z 24004KT 11/M05 A3026 RMK A01 T01121049  RH  032%=      5-min Rain = 0
KBY1 131804Z 24004KT 11/M05 A3026 RMK A01 T01121050  RH  032%=      5-min Rain = 0
KBY1 131805Z 25005KT 11/M05 A3026 RMK A01 T01121050  RH  032%=      5-min Rain = 0
KBY1 131806Z 25003KT 11/M05 A3026 RMK A01 T01121050  RH  032%=      5-min Rain = 0
KBY1 131807Z 23008KT 11/M05 A3026 RMK A01 T01131048  RH  032%=      5-min Rain = 0
KBY1 131808Z 24011KT 12/M05 A3025 RMK A01 T01171045  RH  032%=      5-min Rain = 0
KBY1 131809Z 23007KT 12/M05 A3026 RMK A01 T01171046  RH  032%=      5-min Rain = 0
KBY1 131810Z 24005KT 12/M05 A3026 RMK A01 T01161046  RH  032%=      5-min Rain = 0
KBY1 131811Z 25007KT 12/M05 A3026 RMK A01 T01151046  RH  032%=      5-min Rain = 0
KBY1 131812Z 25009KT 12/M04 A3025 RMK A01 T01181043  RH  032%=      5-min Rain = 0
KBY1 131813Z 25007KT 12/M04 A3025 RMK A01 T01211044  RH  031%=      5-min Rain = 0
KBY1 131814Z 25008KT 12/M04 A3025 RMK A01 T01231044  RH  031%=      5-min Rain = 0
KBY1 131815Z 23010KT 12/M04 A3025 RMK A01 T01231044  RH  031%=      5-min Rain = 0
KBY1 131816Z 23010KT 12/M04 A3025 RMK A01 T01221044  RH  031%=      5-min Rain = 0
KBY1 131817Z 23008KT 12/M04 A3025 RMK A01 T01211044  RH  031%=      5-min Rain = 0
KBY1 131818Z 23011KT 13/M04 A3025 RMK A01 T01261041  RH  031%=      5-min Rain = 0
KBY1 131819Z 22009KT 13/M04 A3025 RMK A01 T01251044  RH  030%=      5-min Rain = 0
KBY1 131820Z 22010KT 12/M04 A3025 RMK A01 T01231044  RH  031%=      5-min Rain = 0
KBY1 131821Z 23009G14KT 12/M04 A3025 RMK A01 T01241042  RH  031%=      5-min Rain = 0
KBY1 131822Z 24008KT 13/M04 A3025 RMK A01 T01281042  RH  030%=      5-min Rain = 0
KBY1 131823Z 23006KT 13/M04 A3025 RMK A01 T01291043  RH  030%=      5-min Rain = 0
KBY1 131824Z 21005KT 13/M04 A3025 RMK A01 T01291044  RH  030%=      5-min Rain = 0
KBY1 131825Z 22006KT 13/M04 A3025 RMK A01 T01281044  RH  030%=      5-min Rain = 0
KBY1 131826Z 22007KT 13/M04 A3025 RMK A01 T01291043  RH  030%=      5-min Rain = 0
KBY1 131827Z 24008KT 13/M04 A3025 RMK A01 T01291043  RH  030%=      5-min Rain = 0
KBY1 131828Z 23008KT 13/M04 A3025 RMK A01 T01291044  RH  030%=      5-min Rain = 0
KBY1 131829Z 23008KT 13/M04 A3025 RMK A01 T01281044  RH  030%=      5-min Rain = 0
KBY1 131830Z 23008KT 13/M04 A3025 RMK A01 T01281043  RH  030%=      5-min Rain = 0
KBY1 131831Z 23006KT 13/M04 A3024 RMK A01 T01301043  RH  030%=      5-min Rain = 0
KBY1 131832Z 21007KT 13/M04 A3024 RMK A01 T01281044  RH  030%=      5-min Rain = 0
KBY1 131833Z 20007KT 13/M04 A3024 RMK A01 T01301042  RH  030%=      5-min Rain = 0
KBY1 131834Z 21005KT 13/M04 A3024 RMK A01 T01331042  RH  029%=      5-min Rain = 0
KBY1 131835Z 27003KT 13/M04 A3024 RMK A01 T01341043  RH  029%=      5-min Rain = 0
KBY1 131836Z 26007KT 13/M04 A3024 RMK A01 T01321044  RH  029%=      5-min Rain = 0
KBY1 131837Z 24007KT 13/M04 A3024 RMK A01 T01321043  RH  029%=      5-min Rain = 0
KBY1 131838Z 23009KT 13/M04 A3024 RMK A01 T01331041  RH  029%=      5-min Rain = 0
KBY1 131839Z 22008KT 14/M04 A3024 RMK A01 T01351041  RH  029%=      5-min Rain = 0
KBY1 131840Z 23006KT 14/M04 A3024 RMK A01 T01381041  RH  029%=      5-min Rain = 0
KBY1 131841Z 21005KT 14/M04 A3024 RMK A01 T01381042  RH  028%=      5-min Rain = 0
KBY1 131842Z 25008KT 14/M04 A3024 RMK A01 T01391040  RH  029%=      5-min Rain = 0
KBY1 131843Z 25006KT 14/M04 A3024 RMK A01 T01401041  RH  028%=      5-min Rain = 0
KBY1 131844Z 23005KT 14/M04 A3023 RMK A01 T01361042  RH  029%=      5-min Rain = 0
KBY1 131845Z 24008KT 14/M04 A3023 RMK A01 T01361042  RH  029%=      5-min Rain = 0
KBY1 131846Z 23007KT 14/M04 A3023 RMK A01 T01351042  RH  029%=      5-min Rain = 0
KBY1 131847Z 24009KT 13/M04 A3023 RMK A01 T01331043  RH  029%=      5-min Rain = 0
KBY1 131848Z 24010KT 13/M04 A3023 RMK A01 T01331043  RH  029%=      5-min Rain = 0
KBY1 131849Z 22008KT 13/M04 A3023 RMK A01 T01331042  RH  029%=      5-min Rain = 0
KBY1 131850Z 21009KT 13/M04 A3023 RMK A01 T01341042  RH  029%=      5-min Rain = 0
KBY1 131851Z 21009KT 14/M04 A3023 RMK A01 T01361041  RH  029%=      5-min Rain = 0
KBY1 131852Z 20006KT 14/M04 A3023 RMK A01 T01361042  RH  029%=      5-min Rain = 0
KBY1 131853Z 21006KT 14/M04 A3023 RMK A01 T01351042  RH  029%=      5-min Rain = 0
KBY1 131854Z 20007KT 14/M04 A3023 RMK A01 T01351042  RH  029%=      5-min Rain = 0
KBY1 131855Z 18006KT 14/M04 A3023 RMK A01 T01361041  RH  029%=      5-min Rain = 0
KBY1 131856Z 20005KT 14/M04 A3023 RMK A01 T01381042  RH  029%=      5-min Rain = 0
KBY1 131857Z 23003KT 14/M04 A3023 RMK A01 T01381042  RH  028%=      5-min Rain = 0
KBY1 131858Z 24005KT 14/M04 A3023 RMK A01 T01391041  RH  028%=      5-min Rain = 0
KBY1 131859Z 25006KT 14/M04 A3023 RMK A01 T01411041  RH  028%=      5-min Rain = 0
KBY1 131900Z 27006KT 14/M04 A3023 RMK A01 T01421041  RH  028%=      5-min Rain = 0
KBY1 131901Z 23006KT 14/M04 A3023 RMK A01 T01421040  RH  028%=      5-min Rain = 0
KBY1 131902Z 20007KT 15/M04 A3023 RMK A01 T01461039  RH  028%=      5-min Rain = 0
KBY1 131903Z 20006KT 15/M04 A3023 RMK A01 T01461040  RH  027%=      5-min Rain = 0
KBY1 131904Z 18009KT 15/M04 A3022 RMK A01 T01461040  RH  027%=      5-min Rain = 0
KBY1 131905Z 18004KT 15/M04 A3023 RMK A01 T01461041  RH  027%=      5-min Rain = 0
KBY1 131906Z 20004KT 15/M04 A3023 RMK A01 T01451041  RH  027%=      5-min Rain = 0
KBY1 131907Z 22005KT 14/M04 A3022 RMK A01 T01441041  RH  028%=      5-min Rain = 0
KBY1 131908Z 21007KT 15/M04 A3022 RMK A01 T01471038  RH  028%=      5-min Rain = 0
KBY1 131909Z 20005KT 15/M04 A3022 RMK A01 T01491040  RH  027%=      5-min Rain = 0
KBY1 131910Z 22003KT 15/M04 A3022 RMK A01 T01491040  RH  027%=      5-min Rain = 0
KBY1 131911Z 26007KT 15/M04 A3022 RMK A01 T01511039  RH  027%=      5-min Rain = 0
KBY1 131912Z 26007KT 15/M04 A3022 RMK A01 T01521041  RH  026%=      5-min Rain = 0
KBY1 131913Z 26005KT 15/M04 A3022 RMK A01 T01501042  RH  026%=      5-min Rain = 0
KBY1 131914Z 26005KT 15/M04 A3022 RMK A01 T01481041  RH  027%=      5-min Rain = 0
KBY1 131915Z 26004KT 15/M04 A3022 RMK A01 T01481041  RH  027%=      5-min Rain = 0
KBY1 131916Z 24003KT 15/M04 A3022 RMK A01 T01491040  RH  027%=      5-min Rain = 0
KBY1 131917Z 20002KT 15/M04 A3022 RMK A01 T01481042  RH  027%=      5-min Rain = 0
KBY1 131918Z 22005KT 15/M04 A3022 RMK A01 T01481041  RH  027%=      5-min Rain = 0
KBY1 131919Z 22004KT 15/M04 A3022 RMK A01 T01481041  RH  027%=      5-min Rain = 0
KBY1 131920Z 26008KT 15/M04 A3022 RMK A01 T01471041  RH  027%=      5-min Rain = 0
KBY1 131921Z 25008KT 15/M04 A3022 RMK A01 T01471041  RH  027%=      5-min Rain = 0
KBY1 131922Z 25006KT 15/M04 A3022 RMK A01 T01471040  RH  027%=      5-min Rain = 0
KBY1 131923Z 24006KT 15/M04 A3022 RMK A01 T01481039  RH  027%=      5-min Rain = 0
KBY1 131924Z 22004KT 15/M04 A3022 RMK A01 T01501039  RH  027%=      5-min Rain = 0
KBY1 131925Z 22005KT 15/M04 A3022 RMK A01 T01511039  RH  027%=      5-min Rain = 0
KBY1 131926Z 21006KT 15/M04 A3021 RMK A01 T01521039  RH  027%=      5-min Rain = 0
KBY1 131927Z 20005KT 15/M04 A3021 RMK A01 T01531039  RH  026%=      5-min Rain = 0
KBY1 131928Z 22005KT 15/M04 A3021 RMK A01 T01541038  RH  026%=      5-min Rain = 0
KBY1 131929Z 26006KT 16/M04 A3021 RMK A01 T01551037  RH  026%=      5-min Rain = 0
KBY1 131930Z 26003KT 16/M04 A3021 RMK A01 T01561038  RH  026%=      5-min Rain = 0
KBY1 131931Z 23004KT 16/M04 A3021 RMK A01 T01561038  RH  026%=      5-min Rain = 0
KBY1 131932Z 24006KT 16/M04 A3021 RMK A01 T01571039  RH  026%=      5-min Rain = 0
KBY1 131933Z 24006KT 16/M04 A3021 RMK A01 T01571039  RH  026%=      5-min Rain = 0
KBY1 131934Z 22003KT 16/M04 A3021 RMK A01 T01551039  RH  026%=      5-min Rain = 0
KBY1 131935Z 25005KT 16/M04 A3021 RMK A01 T01551038  RH  026%=      5-min Rain = 0
KBY1 131936Z 24006KT 16/M04 A302 RMK A01 T01561038  RH  026%=      5-min Rain = 0
KBY1 131937Z 25007KT 16/M04 A302 RMK A01 T01571037  RH  026%=      5-min Rain = 0
KBY1 131938Z 23005KT 16/M04 A302 RMK A01 T01581038  RH  026%=      5-min Rain = 0
KBY1 131939Z 21005KT 16/M04 A302 RMK A01 T01581038  RH  026%=      5-min Rain = 0
KBY1 131940Z 26004KT 16/M04 A302 RMK A01 T01581037  RH  026%=      5-min Rain = 0
KBY1 131941Z 29002KT 16/M04 A302 RMK A01 T01601036  RH  026%=      5-min Rain = 0
KBY1 131942Z 25002KT 16/M04 A302 RMK A01 T01601036  RH  026%=      5-min Rain = 0
KBY1 131943Z 27006KT 16/M04 A302 RMK A01 T01611036  RH  026%=      5-min Rain = 0
KBY1 131944Z 29006KT 16/M04 A302 RMK A01 T01611038  RH  025%=      5-min Rain = 0
KBY1 131945Z 27004KT 16/M04 A302 RMK A01 T01601039  RH  025%=      5-min Rain = 0
KBY1 131946Z 29005KT 16/M04 A302 RMK A01 T01601037  RH  026%=      5-min Rain = 0
KBY1 131947Z 28004KT 16/M04 A302 RMK A01 T01631036  RH  025%=      5-min Rain = 0
KBY1 131948Z 25004KT 16/M04 A302 RMK A01 T01631037  RH  025%=      5-min Rain = 0
KBY1 131949Z 22003KT 16/M04 A3019 RMK A01 T01621037  RH  025%=      5-min Rain = 0
KBY1 131950Z 23001KT 16/M04 A3019 RMK A01 T01621037  RH  025%=      5-min Rain = 0
KBY1 131951Z 20002KT 16/M04 A3019 RMK A01 T01631037  RH  025%=      5-min Rain = 0
KBY1 131952Z 26002KT 17/M04 A3019 RMK A01 T01661035  RH  025%=      5-min Rain = 0
KBY1 131953Z 24005KT 17/M04 A3019 RMK A01 T01681035  RH  025%=      5-min Rain = 0
KBY1 131954Z 25007KT 17/M04 A3019 RMK A01 T01691035  RH  025%=      5-min Rain = 0
KBY1 131955Z 24007KT 17/M04 A3019 RMK A01 T01691036  RH  024%=      5-min Rain = 0
KBY1 131956Z 24005KT 17/M04 A3019 RMK A01 T01701035  RH  024%=      5-min Rain = 0
KBY1 131957Z 21004KT 17/M04 A3019 RMK A01 T01691036  RH  024%=      5-min Rain = 0
KBY1 131958Z 22003KT 17/M04 A3019 RMK A01 T01681037  RH  024%=      5-min Rain = 0
KBY1 131959Z 22001KT 17/M04 A3018 RMK A01 T01671037  RH  024%=      5-min Rain = 0
KBY1 132000Z 36001KT 17/M04 A3018 RMK A01 T01671037  RH  024%=      5-min Rain = 0
KBY1 132001Z 27002G7KT 17/M04 A3018 RMK A01 T01681037  RH  024%=      5-min Rain = 0
KBY1 132002Z 27007KT 17/M04 A3018 RMK A01 T01691035  RH  025%=      5-min Rain = 0
KBY1 132003Z 29006KT 17/M04 A3018 RMK A01 T01701036  RH  024%=      5-min Rain = 0
KBY1 132004Z 31004KT 17/M04 A3018 RMK A01 T01691036  RH  024%=      5-min Rain = 0
KBY1 132005Z 30004KT 17/M03 A3018 RMK A01 T01701034  RH  025%=      5-min Rain = 0
KBY1 132006Z 27005KT 17/M04 A3018 RMK A01 T01731035  RH  024%=      5-min Rain = 0
KBY1 132007Z 26006KT 17/M03 A3018 RMK A01 T01741034  RH  024%=      5-min Rain = 0
KBY1 132008Z 25007KT 18/M03 A3018 RMK A01 T01751033  RH  024%=      5-min Rain = 0
KBY1 132009Z 26007KT 18/M03 A3018 RMK A01 T01761034  RH  024%=      5-min Rain = 0
KBY1 132010Z 25006KT 18/M04 A3018 RMK A01 T01761036  RH  023%=      5-min Rain = 0
KBY1 132011Z 26007KT 17/M04 A3018 RMK A01 T01731036  RH  024%=      5-min Rain = 0
KBY1 132012Z 27004KT 17/M04 A3018 RMK A01 T01731035  RH  024%=      5-min Rain = 0
KBY1 132013Z 27003KT 17/M04 A3018 RMK A01 T01731036  RH  024%=      5-min Rain = 0
KBY1 132014Z 25005KT 18/M03 A3018 RMK A01 T01751034  RH  024%=      5-min Rain = 0
KBY1 132015Z 25005KT 18/M03 A3018 RMK A01 T01781033  RH  024%=      5-min Rain = 0
KBY1 132016Z 25003KT 18/M03 A3018 RMK A01 T01791033  RH  023%=      5-min Rain = 0
KBY1 132017Z 25002KT 18/M04 A3018 RMK A01 T01781035  RH  023%=      5-min Rain = 0
KBY1 132018Z 30002KT 18/M03 A3018 RMK A01 T01781034  RH  023%=      5-min Rain = 0
KBY1 132019Z 26004KT 18/M04 A3018 RMK A01 T01791035  RH  023%=      5-min Rain = 0
KBY1 132020Z 26006KT 18/M04 A3017 RMK A01 T01791035  RH  023%=      5-min Rain = 0
KBY1 132021Z 22005KT 18/M04 A3017 RMK A01 T01791035  RH  023%=      5-min Rain = 0
KBY1 132022Z 17004KT 18/M04 A3017 RMK A01 T01791035  RH  023%=      5-min Rain = 0
KBY1 132023Z 19004KT 18/M04 A3017 RMK A01 T01781035  RH  023%=      5-min Rain = 0
KBY1 132024Z 20003KT 18/M04 A3017 RMK A01 T01781035  RH  023%=      5-min Rain = 0
KBY1 132025Z 20003KT 18/M03 A3017 RMK A01 T01791034  RH  023%=      5-min Rain = 0
KBY1 132026Z 20003KT 18/M04 A3017 RMK A01 T01811035  RH  023%=      5-min Rain = 0
KBY1 132027Z 21003KT 18/M04 A3017 RMK A01 T01821035  RH  023%=      5-min Rain = 0
KBY1 132028Z 19003KT 18/M04 A3017 RMK A01 T01801035  RH  023%=      5-min Rain = 0
KBY1 132029Z 21002KT 18/M04 A3017 RMK A01 T01801035  RH  023%=      5-min Rain = 0
KBY1 132030Z 20003KT 18/M04 A3017 RMK A01 T01811035  RH  023%=      5-min Rain = 0
KBY1 132031Z 23003KT 18/M04 A3017 RMK A01 T01811035  RH  023%=      5-min Rain = 0
KBY1 132032Z 25002KT 18/M03 A3016 RMK A01 T01831034  RH  023%=      5-min Rain = 0
KBY1 132033Z 28003KT 18/M04 A3016 RMK A01 T01831035  RH  022%=      5-min Rain = 0
KBY1 132034Z 27001KT 18/M04 A3016 RMK A01 T01841035  RH  022%=      5-min Rain = 0
KBY1 132035Z 28002KT 19/M04 A3016 RMK A01 T01851035  RH  022%=      5-min Rain = 0
KBY1 132036Z 23002KT 19/M04 A3016 RMK A01 T01861036  RH  022%=      5-min Rain = 0
KBY1 132037Z 23004KT 19/M04 A3016 RMK A01 T01871035  RH  022%=      5-min Rain = 0
KBY1 132038Z 27005KT 19/M04 A3016 RMK A01 T01881035  RH  022%=      5-min Rain = 0
KBY1 132039Z 28004KT 19/M04 A3016 RMK A01 T01891036  RH  021%=      5-min Rain = 0
KBY1 132040Z 26004KT 19/M04 A3016 RMK A01 T01891037  RH  021%=      5-min Rain = 0
KBY1 132041Z 26005KT 19/M04 A3016 RMK A01 T01881036  RH  022%=      5-min Rain = 0
KBY1 132042Z 24003KT 19/M04 A3016 RMK A01 T01881037  RH  021%=      5-min Rain = 0
KBY1 132043Z 26002KT 19/M04 A3016 RMK A01 T01891037  RH  021%=      5-min Rain = 0
KBY1 132044Z 21004KT 19/M04 A3016 RMK A01 T01891037  RH  021%=      5-min Rain = 0
KBY1 132045Z 19003KT 19/M04 A3016 RMK A01 T01901035  RH  021%=      5-min Rain = 0
KBY1 132046Z 23002KT 19/M04 A3016 RMK A01 T01911035  RH  021%=      5-min Rain = 0
KBY1 132047Z 22007KT 19/M04 A3016 RMK A01 T01931035  RH  021%=      5-min Rain = 0
KBY1 132048Z 22007KT 19/M04 A3016 RMK A01 T01931037  RH  021%=      5-min Rain = 0
KBY1 132049Z 18004KT 19/M04 A3016 RMK A01 T01901038  RH  021%=      5-min Rain = 0
KBY1 132050Z 19004KT 19/M04 A3016 RMK A01 T01891037  RH  021%=      5-min Rain = 0
KBY1 132051Z 20005KT 19/M04 A3016 RMK A01 T01901036  RH  021%=      5-min Rain = 0
KBY1 132052Z 20007KT 19/M04 A3016 RMK A01 T01911036  RH  021%=      5-min Rain = 0
KBY1 132053Z 19006KT 19/M04 A3016 RMK A01 T01931036  RH  021%=      5-min Rain = 0
KBY1 132054Z 18003KT 19/M04 A3016 RMK A01 T01921037  RH  021%=      5-min Rain = 0
KBY1 132055Z 19003KT 19/M04 A3016 RMK A01 T01911037  RH  021%=      5-min Rain = 0
KBY1 132056Z 17002KT 19/M04 A3016 RMK A01 T01921037  RH  021%=      5-min Rain = 0
KBY1 132057Z 17003KT 19/M04 A3016 RMK A01 T01921037  RH  021%=      5-min Rain = 0
KBY1 132058Z 19004KT 19/M04 A3016 RMK A01 T01921036  RH  021%=      5-min Rain = 0
KBY1 132059Z 19004KT 19/M04 A3016 RMK A01 T01941036  RH  021%=      5-min Rain = 0
KBY1 132100Z 19003KT 19/M04 A3016 RMK A01 T01931037  RH  021%=      5-min Rain = 0
KBY1 132101Z 21003KT 19/M04 A3016 RMK A01 T01921037  RH  021%=      5-min Rain = 0
KBY1 132102Z 24003KT 19/M04 A3016 RMK A01 T01911036  RH  021%=      5-min Rain = 0
KBY1 132103Z 25001KT 19/M04 A3016 RMK A01 T01931037  RH  021%=      5-min Rain = 0
KBY1 132104Z 28002KT 20/M04 A3016 RMK A01 T01951035  RH  021%=      5-min Rain = 0
KBY1 132105Z 28005KT 20/M04 A3016 RMK A01 T01971037  RH  020%=      5-min Rain = 0
KBY1 132106Z 24005KT 20/M04 A3016 RMK A01 T01971038  RH  020%=      5-min Rain = 0
KBY1 132107Z 14003KT 20/M04 A3016 RMK A01 T01961038  RH  020%=      5-min Rain = 0
KBY1 132108Z 17005KT 20/M04 A3016 RMK A01 T01951038  RH  020%=      5-min Rain = 0
KBY1 132109Z 19006KT 20/M04 A3016 RMK A01 T01951037  RH  021%=      5-min Rain = 0
KBY1 132110Z 19005KT 20/M04 A3015 RMK A01 T01951037  RH  021%=      5-min Rain = 0
KBY1 132111Z 18006KT 20/M04 A3015 RMK A01 T01961037  RH  020%=      5-min Rain = 0
KBY1 132112Z 19006KT 20/M04 A3015 RMK A01 T01961037  RH  020%=      5-min Rain = 0
KBY1 132113Z 20006KT 20/M04 A3015 RMK A01 T01961038  RH  020%=      5-min Rain = 0
KBY1 132114Z 25007KT 20/M04 A3015 RMK A01 T01961038  RH  020%=      5-min Rain = 0
KBY1 132115Z 26005KT 20/M04 A3015 RMK A01 T01961041  RH  020%=      5-min Rain = 0
KBY1 132116Z 26005KT 20/M04 A3015 RMK A01 T01971042  RH  019%=      5-min Rain = 0
KBY1 132117Z 24006KT 20/M04 A3015 RMK A01 T01971043  RH  019%=      5-min Rain = 0
KBY1 132118Z 22007KT 20/M04 A3015 RMK A01 T01971042  RH  020%=      5-min Rain = 0
KBY1 132119Z 22006KT 20/M04 A3015 RMK A01 T01981041  RH  019%=      5-min Rain = 0
KBY1 132120Z 22004KT 20/M04 A3015 RMK A01 T01991041  RH  019%=      5-min Rain = 0
KBY1 132121Z 22003KT 20/M04 A3015 RMK A01 T02001041  RH  019%=      5-min Rain = 0
KBY1 132122Z 21002KT 20/M04 A3015 RMK A01 T02021041  RH  019%=      5-min Rain = 0
KBY1 132123Z 20002KT 20/M04 A3015 RMK A01 T02031041  RH  019%=      5-min Rain = 0
KBY1 132124Z 21003KT 20/M04 A3015 RMK A01 T02041040  RH  019%=      5-min Rain = 0
KBY1 132125Z 22001KT 21/M04 A3015 RMK A01 T02051041  RH  019%=      5-min Rain = 0
KBY1 132126Z 21003KT 21/M04 A3015 RMK A01 T02051040  RH  019%=      5-min Rain = 0
KBY1 132127Z 22003KT 21/M04 A3015 RMK A01 T02071039  RH  019%=      5-min Rain = 0
KBY1 132128Z 22002KT 21/M04 A3015 RMK A01 T02091039  RH  019%=      5-min Rain = 0
KBY1 132129Z 24002KT 21/M04 A3015 RMK A01 T02111040  RH  018%=      5-min Rain = 0
KBY1 132130Z 25002KT 21/M04 A3015 RMK A01 T02111041  RH  018%=      5-min Rain = 0
KBY1 132131Z 23005KT 21/M04 A3015 RMK A01 T02121043  RH  018%=      5-min Rain = 0
KBY1 132132Z 21004KT 21/M04 A3015 RMK A01 T02111044  RH  018%=      5-min Rain = 0
KBY1 132133Z 22003KT 21/M04 A3015 RMK A01 T02091044  RH  018%=      5-min Rain = 0
KBY1 132134Z 28005KT 21/M05 A3015 RMK A01 T02071045  RH  018%=      5-min Rain = 0
KBY1 132135Z 28005KT 21/M05 A3015 RMK A01 T02071046  RH  018%=      5-min Rain = 0
KBY1 132136Z 26007KT 21/M05 A3015 RMK A01 T02071045  RH  018%=      5-min Rain = 0
KBY1 132137Z 20005KT 21/M05 A3015 RMK A01 T02071045  RH  018%=      5-min Rain = 0
KBY1 132138Z 22003KT 21/M05 A3015 RMK A01 T02061045  RH  018%=      5-min Rain = 0
KBY1 132139Z 18000KT 21/M05 A3015 RMK A01 T02051045  RH  018%=      5-min Rain = 0
KBY1 132140Z 00000KT 21/M05 A3015 RMK A01 T02051046  RH  018%=      5-min Rain = 0
KBY1 132141Z 03001KT 21/M05 A3014 RMK A01 T02051045  RH  018%=      5-min Rain = 0
KBY1 132142Z 01002KT 21/M05 A3014 RMK A01 T02051046  RH  018%=      5-min Rain = 0
KBY1 132143Z 01004KT 21/M05 A3014 RMK A01 T02051046  RH  018%=      5-min Rain = 0
KBY1 132144Z 00003KT 21/M05 A3014 RMK A01 T02061046  RH  018%=      5-min Rain = 0
KBY1 132145Z 34001KT 21/M05 A3014 RMK A01 T02071046  RH  018%=      5-min Rain = 0
KBY1 132146Z 03002KT 21/M05 A3014 RMK A01 T02081046  RH  018%=      5-min Rain = 0
KBY1 132147Z 09001KT 21/M05 A3014 RMK A01 T02081047  RH  018%=      5-min Rain = 0
KBY1 132148Z 23001KT 21/M05 A3014 RMK A01 T02081047  RH  018%=      5-min Rain = 0
KBY1 132149Z 19003KT 21/M05 A3014 RMK A01 T02091046  RH  018%=      5-min Rain = 0
KBY1 132150Z 21003KT 21/M05 A3014 RMK A01 T02101046  RH  017%=      5-min Rain = 0
KBY1 132151Z 21005KT 21/M05 A3014 RMK A01 T02121047  RH  017%=      5-min Rain = 0
KBY1 132152Z 19003KT 21/M05 A3014 RMK A01 T02131049  RH  017%=      5-min Rain = 0
KBY1 132153Z 20004KT 21/M05 A3014 RMK A01 T02121048  RH  017%=      5-min Rain = 0
KBY1 132154Z 20003KT 21/M05 A3014 RMK A01 T02131047  RH  017%=      5-min Rain = 0
KBY1 132155Z 22006KT 22/M05 A3014 RMK A01 T02151049  RH  017%=      5-min Rain = 0
KBY1 132156Z 20009KT 22/M05 A3014 RMK A01 T02171050  RH  016%=      5-min Rain = 0
KBY1 132157Z 18007KT 22/M05 A3014 RMK A01 T02171054  RH  016%=      5-min Rain = 0
KBY1 132158Z 17006KT 22/M05 A3014 RMK A01 T02181045  RH  017%=      5-min Rain = 0
KBY1 132159Z 15005KT 22/M04 A3014 RMK A01 T02171043  RH  017%=      5-min Rain = 0
KBY1 132200Z 16004KT 22/M04 A3014 RMK A01 T02161040  RH  018%=      5-min Rain = 0
KBY1 132201Z 19003KT 22/M04 A3014 RMK A01 T02151040  RH  018%=      5-min Rain = 0
KBY1 132202Z 18003KT 22/M04 A3014 RMK A01 T02151042  RH  017%=      5-min Rain = 0
KBY1 132203Z 20004KT 21/M05 A3014 RMK A01 T02141048  RH  017%=      5-min Rain = 0
KBY1 132204Z 18007KT 21/M05 A3014 RMK A01 T02141047  RH  017%=      5-min Rain = 0
KBY1 132205Z 14008KT 21/M04 A3014 RMK A01 T02141043  RH  018%=      5-min Rain = 0
KBY1 132206Z 15008KT 21/M04 A3014 RMK A01 T02131042  RH  018%=      5-min Rain = 0
KBY1 132207Z 17006KT 21/M04 A3014 RMK A01 T02111041  RH  018%=      5-min Rain = 0
KBY1 132208Z 20004KT 21/M04 A3014 RMK A01 T02101042  RH  018%=      5-min Rain = 0
KBY1 132209Z 21004KT 21/M04 A3014 RMK A01 T02091042  RH  018%=      5-min Rain = 0
KBY1 132210Z 16003KT 21/M04 A3014 RMK A01 T02091042  RH  018%=      5-min Rain = 0
KBY1 132211Z 13003KT 21/M04 A3014 RMK A01 T02101040  RH  018%=      5-min Rain = 0
KBY1 132212Z 15004KT 21/M04 A3014 RMK A01 T02091041  RH  018%=      5-min Rain = 0
KBY1 132213Z 16005KT 21/M04 A3014 RMK A01 T02091041  RH  018%=      5-min Rain = 0
KBY1 132214Z 14005KT 21/M04 A3014 RMK A01 T02091041  RH  018%=      5-min Rain = 0
KBY1 132215Z 15006KT 21/M04 A3014 RMK A01 T02091040  RH  018%=      5-min Rain = 0
KBY1 132216Z 14007KT 21/M04 A3014 RMK A01 T02091040  RH  018%=      5-min Rain = 0
KBY1 132217Z 14002KT 21/M06 A3014 RMK A01 T02081055  RH  016%=      5-min Rain = 0
KBY1 132218Z 11002KT 21/M06 A3014 RMK A01 T02081056  RH  016%=      5-min Rain = 0
KBY1 132219Z 13005KT 21/M04 A3014 RMK A01 T02091044  RH  018%=      5-min Rain = 0
KBY1 132220Z 12006KT 21/M04 A3014 RMK A01 T02081040  RH  019%=      5-min Rain = 0
KBY1 132221Z 13005KT 21/M04 A3014 RMK A01 T02091040  RH  018%=      5-min Rain = 0
KBY1 132222Z 13006KT 21/M04 A3014 RMK A01 T02091040  RH  018%=      5-min Rain = 0
KBY1 132223Z 13006KT 21/M04 A3014 RMK A01 T02081040  RH  018%=      5-min Rain = 0
KBY1 132224Z 13005KT 21/M04 A3014 RMK A01 T02081040  RH  019%=      5-min Rain = 0
KBY1 132225Z 13007KT 21/M04 A3014 RMK A01 T02081039  RH  019%=      5-min Rain = 0
KBY1 132226Z 13008KT 21/M04 A3014 RMK A01 T02081039  RH  019%=      5-min Rain = 0
KBY1 132227Z 12008KT 21/M04 A3014 RMK A01 T02081039  RH  019%=      5-min Rain = 0
KBY1 132228Z 09009KT 21/M04 A3014 RMK A01 T02081039  RH  019%=      5-min Rain = 0
KBY1 132229Z 10005KT 21/M04 A3014 RMK A01 T02061040  RH  019%=      5-min Rain = 0
KBY1 132230Z 11005KT 21/M04 A3014 RMK A01 T02061039  RH  019%=      5-min Rain = 0
KBY1 132231Z 14004KT 21/M04 A3014 RMK A01 T02051039  RH  019%=      5-min Rain = 0
KBY1 132232Z 11006KT 21/M04 A3014 RMK A01 T02061038  RH  019%=      5-min Rain = 0
KBY1 132233Z 10005KT 21/M04 A3014 RMK A01 T02061040  RH  019%=      5-min Rain = 0
KBY1 132234Z 09005KT 21/M04 A3014 RMK A01 T02061040  RH  019%=      5-min Rain = 0
KBY1 132235Z 12005KT 21/M04 A3014 RMK A01 T02061040  RH  019%=      5-min Rain = 0
KBY1 132236Z 13005KT 21/M04 A3014 RMK A01 T02051040  RH  019%=      5-min Rain = 0
KBY1 132237Z 13005KT 21/M04 A3014 RMK A01 T02051040  RH  019%=      5-min Rain = 0
KBY1 132238Z 13004KT 21/M04 A3014 RMK A01 T02051040  RH  019%=      5-min Rain = 0
KBY1 132239Z 11003KT 21/M04 A3014 RMK A01 T02051040  RH  019%=      5-min Rain = 0
KBY1 132240Z 14002KT 21/M04 A3014 RMK A01 T02051041  RH  019%=      5-min Rain = 0
KBY1 132241Z 17002KT 21/M04 A3014 RMK A01 T02051040  RH  019%=      5-min Rain = 0
KBY1 132242Z 13003KT 21/M04 A3014 RMK A01 T02051041  RH  019%=      5-min Rain = 0
KBY1 132243Z 15003KT 21/M04 A3014 RMK A01 T02051040  RH  019%=      5-min Rain = 0
KBY1 132244Z 16004KT 21/M04 A3014 RMK A01 T02051040  RH  019%=      5-min Rain = 0
KBY1 132245Z 17003KT 21/M04 A3014 RMK A01 T02051040  RH  019%=      5-min Rain = 0
KBY1 132246Z 13003KT 21/M04 A3014 RMK A01 T02051040  RH  019%=      5-min Rain = 0
KBY1 132247Z 12003KT 21/M04 A3014 RMK A01 T02051040  RH  019%=      5-min Rain = 0
KBY1 132248Z 12004KT 21/M04 A3013 RMK A01 T02051040  RH  019%=      5-min Rain = 0
KBY1 132249Z 12004KT 21/M04 A3013 RMK A01 T02051039  RH  019%=      5-min Rain = 0
KBY1 132250Z 11006KT 21/M04 A3013 RMK A01 T02051039  RH  019%=      5-min Rain = 0
KBY1 132251Z 10006KT 21/M04 A3013 RMK A01 T02051039  RH  019%=      5-min Rain = 0
KBY1 132252Z 11005KT 20/M04 A3013 RMK A01 T02041039  RH  019%=      5-min Rain = 0
KBY1 132253Z 10006KT 20/M04 A3013 RMK A01 T02041039  RH  019%=      5-min Rain = 0
KBY1 132254Z 10006KT 20/M04 A3013 RMK A01 T02041038  RH  019%=      5-min Rain = 0
KBY1 132255Z 11006KT 20/M04 A3013 RMK A01 T02031038  RH  019%=      5-min Rain = 0
KBY1 132256Z 10006KT 20/M04 A3013 RMK A01 T02031038  RH  019%=      5-min Rain = 0
KBY1 132257Z 09005KT 20/M04 A3013 RMK A01 T02021039  RH  019%=      5-min Rain = 0
KBY1 132258Z 09005KT 20/M04 A3013 RMK A01 T02021038  RH  019%=      5-min Rain = 0
KBY1 132259Z 09004KT 20/M04 A3013 RMK A01 T02021038  RH  019%=      5-min Rain = 0
KBY1 132300Z 10005KT 20/M04 A3013 RMK A01 T02021038  RH  019%=      5-min Rain = 0
KBY1 132301Z 10006KT 20/M04 A3013 RMK A01 T02031038  RH  019%=      5-min Rain = 0
KBY1 132302Z 10005KT 20/M04 A3013 RMK A01 T02021038  RH  020%=      5-min Rain = 0
KBY1 132303Z 09005KT 20/M04 A3013 RMK A01 T02011038  RH  020%=      5-min Rain = 0
KBY1 132304Z 09005KT 20/M04 A3013 RMK A01 T02001039  RH  020%=      5-min Rain = 0
KBY1 132305Z 10005KT 20/M04 A3013 RMK A01 T02001038  RH  020%=      5-min Rain = 0
KBY1 132306Z 10005KT 20/M04 A3013 RMK A01 T02001038  RH  020%=      5-min Rain = 0
KBY1 132307Z 09004KT 20/M04 A3013 RMK A01 T01991038  RH  020%=      5-min Rain = 0
KBY1 132308Z 11005KT 20/M04 A3013 RMK A01 T01991038  RH  020%=      5-min Rain = 0
KBY1 132309Z 11005KT 20/M04 A3013 RMK A01 T01991039  RH  020%=      5-min Rain = 0
KBY1 132310Z 11005KT 20/M04 A3013 RMK A01 T01991040  RH  020%=      5-min Rain = 0
KBY1 132311Z 11005KT 20/M04 A3013 RMK A01 T02001040  RH  020%=      5-min Rain = 0
KBY1 132312Z 11006KT 20/M04 A3013 RMK A01 T02001039  RH  020%=      5-min Rain = 0
KBY1 132313Z 12006KT 20/M04 A3014 RMK A01 T02001038  RH  020%=      5-min Rain = 0
KBY1 132314Z 16008KT 20/M04 A3014 RMK A01 T02001038  RH  020%=      5-min Rain = 0
KBY1 132315Z 18008KT 20/M04 A3014 RMK A01 T01991039  RH  020%=      5-min Rain = 0
KBY1 132316Z 18009KT 20/M04 A3014 RMK A01 T01991039  RH  020%=      5-min Rain = 0
KBY1 132317Z 17008KT 20/M04 A3014 RMK A01 T01981039  RH  020%=      5-min Rain = 0
KBY1 132318Z 15006KT 20/M04 A3014 RMK A01 T01981039  RH  020%=      5-min Rain = 0
KBY1 132319Z 16006KT 20/M04 A3014 RMK A01 T01971038  RH  020%=      5-min Rain = 0
KBY1 132320Z 16007KT 20/M04 A3014 RMK A01 T01961038  RH  020%=      5-min Rain = 0
KBY1 132321Z 16009KT 20/M04 A3014 RMK A01 T01961038  RH  020%=      5-min Rain = 0
KBY1 132322Z 16007KT 20/M04 A3014 RMK A01 T01951038  RH  020%=      5-min Rain = 0
KBY1 132323Z 16009KT 20/M04 A3013 RMK A01 T01951038  RH  020%=      5-min Rain = 0
KBY1 132324Z 15009KT 19/M04 A3014 RMK A01 T01941038  RH  020%=      5-min Rain = 0
KBY1 132325Z 15009KT 19/M04 A3014 RMK A01 T01931038  RH  021%=      5-min Rain = 0
KBY1 132326Z 16009KT 19/M04 A3014 RMK A01 T01931038  RH  021%=      5-min Rain = 0
KBY1 132327Z 16009KT 19/M04 A3014 RMK A01 T01921038  RH  021%=      5-min Rain = 0
KBY1 132328Z 16006KT 19/M04 A3014 RMK A01 T01921039  RH  021%=      5-min Rain = 0
KBY1 132329Z 15006KT 19/M04 A3014 RMK A01 T01921038  RH  021%=      5-min Rain = 0
KBY1 132330Z 16008KT 19/M04 A3014 RMK A01 T01911038  RH  021%=      5-min Rain = 0
KBY1 132331Z 16007KT 19/M04 A3014 RMK A01 T01911037  RH  021%=      5-min Rain = 0
KBY1 132332Z 15007KT 19/M04 A3014 RMK A01 T01901036  RH  021%=      5-min Rain = 0
KBY1 132333Z 15006KT 19/M04 A3014 RMK A01 T01891035  RH  022%=      5-min Rain = 0
KBY1 132334Z 16007KT 19/M04 A3014 RMK A01 T01881035  RH  022%=      5-min Rain = 0
KBY1 132335Z 16005KT 19/M04 A3014 RMK A01 T01881035  RH  022%=      5-min Rain = 0
KBY1 132336Z 16005KT 19/M04 A3014 RMK A01 T01871035  RH  022%=      5-min Rain = 0
KBY1 132337Z 16010KT 19/M04 A3014 RMK A01 T01871035  RH  022%=      5-min Rain = 0
KBY1 132338Z 18010G15KT 19/M04 A3014 RMK A01 T01871037  RH  022%=      5-min Rain = 0
KBY1 132339Z 19014KT 19/M04 A3014 RMK A01 T01881037  RH  021%=      5-min Rain = 0
KBY1 132340Z 19013KT 19/M04 A3014 RMK A01 T01891037  RH  021%=      5-min Rain = 0
KBY1 132341Z 19015KT 19/M04 A3014 RMK A01 T01901037  RH  021%=      5-min Rain = 0
KBY1 132342Z 20013KT 19/M04 A3014 RMK A01 T01901037  RH  021%=      5-min Rain = 0
KBY1 132343Z 20015KT 19/M04 A3014 RMK A01 T01901036  RH  021%=      5-min Rain = 0
KBY1 132344Z 20014KT 19/M04 A3014 RMK A01 T01891036  RH  021%=      5-min Rain = 0
KBY1 132345Z 20016KT 19/M04 A3014 RMK A01 T01891037  RH  021%=      5-min Rain = 0
KBY1 132346Z 20014KT 19/M04 A3014 RMK A01 T01881037  RH  021%=      5-min Rain = 0
KBY1 132347Z 20014KT 19/M04 A3014 RMK A01 T01891037  RH  021%=      5-min Rain = 0
KBY1 132348Z 21014KT 19/M04 A3014 RMK A01 T01891037  RH  021%=      5-min Rain = 0
KBY1 132349Z 21013KT 19/M04 A3014 RMK A01 T01881038  RH  021%=      5-min Rain = 0
KBY1 132350Z 20010KT 19/M04 A3015 RMK A01 T01881037  RH  021%=      5-min Rain = 0
KBY1 132351Z 21012KT 19/M04 A3014 RMK A01 T01871038  RH  021%=      5-min Rain = 0
KBY1 132352Z 19011KT 19/M04 A3014 RMK A01 T01861038  RH  022%=      5-min Rain = 0
KBY1 132353Z 20010KT 19/M04 A3014 RMK A01 T01861038  RH  022%=      5-min Rain = 0
KBY1 132354Z 20010KT 19/M04 A3014 RMK A01 T01851038  RH  022%=      5-min Rain = 0
KBY1 132355Z 20010KT 19/M04 A3014 RMK A01 T01851038  RH  022%=      5-min Rain = 0
KBY1 132356Z 20012KT 18/M04 A3014 RMK A01 T01841038  RH  022%=      5-min Rain = 0
KBY1 132357Z 19011KT 18/M04 A3014 RMK A01 T01831038  RH  022%=      5-min Rain = 0
KBY1 132358Z 20013G18KT 18/M04 A3014 RMK A01 T01821039  RH  022%=      5-min Rain = 0
KBY1 132359Z 20014KT 18/M04 A3014 RMK A01 T01831038  RH  022%=      5-min Rain = 0
KBY1 140000Z 20010KT 18/M04 A3014 RMK A01 T01821039  RH  022%=      5-min Rain = 0
KBY1 140001Z 20013G20KT 18/M04 A3014 RMK A01 T01811039  RH  022%=      5-min Rain = 0
KBY1 140002Z 20014KT 18/M04 A3014 RMK A01 T01811039  RH  022%=      5-min Rain = 0
KBY1 140003Z 19014KT 18/M04 A3014 RMK A01 T01811040  RH  022%=      5-min Rain = 0
KBY1 140004Z 20011KT 18/M04 A3014 RMK A01 T01801040  RH  022%=      5-min Rain = 0
KBY1 140005Z 20012KT 18/M04 A3014 RMK A01 T01801039  RH  022%=      5-min Rain = 0
KBY1 140006Z 20012KT 18/M04 A3014 RMK A01 T01791040  RH  022%=      5-min Rain = 0
KBY1 140007Z 20013KT 18/M04 A3014 RMK A01 T01781040  RH  022%=      5-min Rain = 0
KBY1 140008Z 19011KT 18/M04 A3014 RMK A01 T01781040  RH  022%=      5-min Rain = 0
KBY1 140009Z 20014KT 18/M04 A3014 RMK A01 T01781040  RH  022%=      5-min Rain = 0
KBY1 140010Z 20012KT 18/M04 A3014 RMK A01 T01781040  RH  022%=      5-min Rain = 0
KBY1 140011Z 19013KT 18/M04 A3014 RMK A01 T01771041  RH  022%=      5-min Rain = 0
KBY1 140012Z 20011KT 18/M04 A3014 RMK A01 T01771041  RH  022%=      5-min Rain = 0
KBY1 140013Z 20011KT 18/M04 A3014 RMK A01 T01761041  RH  022%=      5-min Rain = 0
KBY1 140014Z 20011KT 18/M04 A3014 RMK A01 T01751042  RH  023%=      5-min Rain = 0
KBY1 140015Z 20013KT 17/M04 A3014 RMK A01 T01741042  RH  023%=      5-min Rain = 0
KBY1 140016Z 20010KT 17/M04 A3014 RMK A01 T01741042  RH  023%=      5-min Rain = 0
KBY1 140017Z 20010KT 17/M04 A3014 RMK A01 T01741042  RH  023%=      5-min Rain = 0
KBY1 140018Z 20010KT 17/M04 A3014 RMK A01 T01721042  RH  023%=      5-min Rain = 0
KBY1 140019Z 20010KT 17/M04 A3014 RMK A01 T01711043  RH  023%=      5-min Rain = 0
KBY1 140020Z 20009KT 17/M04 A3014 RMK A01 T01711043  RH  023%=      5-min Rain = 0
KBY1 140021Z 20011KT 17/M04 A3014 RMK A01 T01701043  RH  023%=      5-min Rain = 0
KBY1 140022Z 20009KT 17/M04 A3014 RMK A01 T01701043  RH  023%=      5-min Rain = 0
KBY1 140023Z 19011KT 17/M04 A3014 RMK A01 T01691043  RH  023%=      5-min Rain = 0
KBY1 140024Z 20011KT 17/M04 A3014 RMK A01 T01701043  RH  023%=      5-min Rain = 0
KBY1 140025Z 20010KT 17/M04 A3014 RMK A01 T01691044  RH  023%=      5-min Rain = 0
KBY1 140026Z 19010KT 17/M04 A3014 RMK A01 T01681044  RH  023%=      5-min Rain = 0
KBY1 140027Z 20010G16KT 17/M04 A3014 RMK A01 T01681044  RH  023%=      5-min Rain = 0
KBY1 140028Z 20011KT 17/M04 A3014 RMK A01 T01671044  RH  023%=      5-min Rain = 0
KBY1 140029Z 19011KT 17/M04 A3014 RMK A01 T01671044  RH  023%=      5-min Rain = 0
KBY1 140030Z 20011KT 17/M04 A3014 RMK A01 T01661044  RH  023%=      5-min Rain = 0
KBY1 140031Z 19011KT 17/M04 A3014 RMK A01 T01661044  RH  023%=      5-min Rain = 0
KBY1 140032Z 20011KT 17/M04 A3014 RMK A01 T01661044  RH  023%=      5-min Rain = 0
KBY1 140033Z 19013KT 17/M04 A3014 RMK A01 T01661044  RH  023%=      5-min Rain = 0
KBY1 140034Z 20012KT 17/M04 A3015 RMK A01 T01671044  RH  023%=      5-min Rain = 0
KBY1 140035Z 19013KT 17/M04 A3015 RMK A01 T01671044  RH  023%=      5-min Rain = 0
KBY1 140036Z 19012KT 17/M04 A3015 RMK A01 T01671044  RH  023%=      5-min Rain = 0
KBY1 140037Z 19011KT 17/M04 A3015 RMK A01 T01671044  RH  023%=      5-min Rain = 0
KBY1 140038Z 19013KT 17/M04 A3015 RMK A01 T01661044  RH  023%=      5-min Rain = 0
KBY1 140039Z 19013KT 17/M04 A3015 RMK A01 T01651044  RH  023%=      5-min Rain = 0
KBY1 140040Z 19010KT 17/M04 A3015 RMK A01 T01651044  RH  023%=      5-min Rain = 0
KBY1 140041Z 19010KT 17/M05 A3015 RMK A01 T01651045  RH  024%=      5-min Rain = 0
KBY1 140042Z 19009KT 16/M04 A3015 RMK A01 T01631044  RH  024%=      5-min Rain = 0
KBY1 140043Z 19009KT 16/M05 A3015 RMK A01 T01631045  RH  024%=      5-min Rain = 0
KBY1 140044Z 19013KT 16/M05 A3015 RMK A01 T01621045  RH  024%=      5-min Rain = 0
KBY1 140045Z 19011KT 16/M04 A3015 RMK A01 T01621044  RH  024%=      5-min Rain = 0
KBY1 140046Z 19010KT 16/M04 A3015 RMK A01 T01621044  RH  024%=      5-min Rain = 0
KBY1 140047Z 19009KT 16/M04 A3015 RMK A01 T01611044  RH  024%=      5-min Rain = 0
KBY1 140048Z 19010KT 16/M05 A3015 RMK A01 T01601045  RH  024%=      5-min Rain = 0
KBY1 140049Z 19010KT 16/M05 A3015 RMK A01 T01591045  RH  024%=      5-min Rain = 0
KBY1 140050Z 19011KT 16/M04 A3015 RMK A01 T01591044  RH  024%=      5-min Rain = 0
KBY1 140051Z 19011KT 16/M04 A3015 RMK A01 T01581044  RH  025%=      5-min Rain = 0
KBY1 140052Z 19010KT 16/M04 A3015 RMK A01 T01581044  RH  025%=      5-min Rain = 0
KBY1 140053Z 19011KT 16/M04 A3015 RMK A01 T01571044  RH  025%=      5-min Rain = 0
KBY1 140054Z 19011KT 16/M04 A3015 RMK A01 T01571043  RH  025%=      5-min Rain = 0
KBY1 140055Z 19010KT 16/M04 A3015 RMK A01 T01561043  RH  025%=      5-min Rain = 0
KBY1 140056Z 19012KT 16/M04 A3015 RMK A01 T01551043  RH  025%=      5-min Rain = 0
KBY1 140057Z 19012KT 16/M04 A3015 RMK A01 T01551043  RH  025%=      5-min Rain = 0
KBY1 140058Z 18012KT 15/M04 A3015 RMK A01 T01541042  RH  025%=      5-min Rain = 0
KBY1 140059Z 19013KT 16/M04 A3015 RMK A01 T01551042  RH  026%=      5-min Rain = 0
KBY1 140100Z 18010KT 15/M04 A3015 RMK A01 T01541042  RH  026%=      5-min Rain = 0
KBY1 140101Z 19010KT 15/M04 A3015 RMK A01 T01531042  RH  026%=      5-min Rain = 0
KBY1 140102Z 19011KT 15/M04 A3015 RMK A01 T01521042  RH  026%=      5-min Rain = 0
KBY1 140103Z 19009G15KT 15/M04 A3015 RMK A01 T01511042  RH  026%=      5-min Rain = 0
KBY1 140104Z 18012KT 15/M04 A3015 RMK A01 T01501042  RH  026%=      5-min Rain = 0
KBY1 140105Z 19012KT 15/M04 A3015 RMK A01 T01491042  RH  026%=      5-min Rain = 0
KBY1 140106Z 19012KT 15/M04 A3015 RMK A01 T01491042  RH  027%=      5-min Rain = 0
KBY1 140107Z 19013KT 15/M04 A3015 RMK A01 T01491041  RH  027%=      5-min Rain = 0
KBY1 140108Z 19010KT 15/M04 A3015 RMK A01 T01491042  RH  026%=      5-min Rain = 0
KBY1 140109Z 19013KT 15/M04 A3015 RMK A01 T01481042  RH  027%=      5-min Rain = 0
KBY1 140110Z 19012KT 15/M04 A3015 RMK A01 T01481042  RH  027%=      5-min Rain = 0
KBY1 140111Z 19012KT 15/M04 A3015 RMK A01 T01491042  RH  027%=      5-min Rain = 0
KBY1 140112Z 19011KT 15/M04 A3015 RMK A01 T01491042  RH  027%=      5-min Rain = 0
KBY1 140113Z 19012KT 15/M04 A3015 RMK A01 T01481042  RH  027%=      5-min Rain = 0
KBY1 140114Z 19013KT 15/M04 A3016 RMK A01 T01471042  RH  027%=      5-min Rain = 0
KBY1 140115Z 19012G17KT 15/M04 A3016 RMK A01 T01471042  RH  027%=      5-min Rain = 0
KBY1 140116Z 19013G18KT 15/M04 A3016 RMK A01 T01471042  RH  027%=      5-min Rain = 0
KBY1 140117Z 19014KT 15/M04 A3015 RMK A01 T01461042  RH  027%=      5-min Rain = 0
KBY1 140118Z 20011KT 15/M04 A3016 RMK A01 T01471042  RH  027%=      5-min Rain = 0
KBY1 140119Z 19014KT 15/M04 A3016 RMK A01 T01461043  RH  027%=      5-min Rain = 0
KBY1 140120Z 19014G19KT 15/M04 A3015 RMK A01 T01451043  RH  027%=      5-min Rain = 0
KBY1 140121Z 19016KT 15/M04 A3015 RMK A01 T01451042  RH  027%=      5-min Rain = 0
KBY1 140122Z 20014KT 15/M04 A3015 RMK A01 T01451042  RH  027%=      5-min Rain = 0
KBY1 140123Z 19015KT 15/M04 A3015 RMK A01 T01451042  RH  027%=      5-min Rain = 0
KBY1 140124Z 19014G19KT 14/M04 A3015 RMK A01 T01441043  RH  027%=      5-min Rain = 0
KBY1 140125Z 19015KT 14/M04 A3016 RMK A01 T01441043  RH  027%=      5-min Rain = 0
KBY1 140126Z 20012KT 14/M04 A3016 RMK A01 T01431043  RH  027%=      5-min Rain = 0
KBY1 140127Z 20013G19KT 14/M04 A3016 RMK A01 T01421043  RH  027%=      5-min Rain = 0
KBY1 140128Z 19017KT 14/M04 A3016 RMK A01 T01411043  RH  028%=      5-min Rain = 0
KBY1 140129Z 20014KT 14/M04 A3016 RMK A01 T01421043  RH  028%=      5-min Rain = 0
KBY1 140130Z 19014KT 14/M04 A3016 RMK A01 T01411043  RH  028%=      5-min Rain = 0
KBY1 140131Z 20017KT 14/M04 A3016 RMK A01 T01411043  RH  028%=      5-min Rain = 0
KBY1 140132Z 19016KT 14/M04 A3016 RMK A01 T01421041  RH  028%=      5-min Rain = 0
KBY1 140133Z 19014G20KT 14/M04 A3016 RMK A01 T01431041  RH  028%=      5-min Rain = 0
KBY1 140134Z 19013KT 14/M04 A3016 RMK A01 T01431041  RH  028%=      5-min Rain = 0
KBY1 140135Z 19014KT 14/M04 A3016 RMK A01 T01431041  RH  028%=      5-min Rain = 0
KBY1 140136Z 19014KT 14/M04 A3016 RMK A01 T01421041  RH  028%=      5-min Rain = 0
KBY1 140137Z 19013KT 14/M04 A3016 RMK A01 T01411041  RH  028%=      5-min Rain = 0
KBY1 140138Z 19011KT 14/M04 A3016 RMK A01 T01401041  RH  028%=      5-min Rain = 0
KBY1 140139Z 19013KT 14/M04 A3016 RMK A01 T01391040  RH  029%=      5-min Rain = 0
KBY1 140140Z 19014KT 14/M04 A3016 RMK A01 T01391039  RH  029%=      5-min Rain = 0
KBY1 140141Z 19014KT 14/M04 A3016 RMK A01 T01391039  RH  029%=      5-min Rain = 0
KBY1 140142Z 19014KT 14/M04 A3016 RMK A01 T01391039  RH  029%=      5-min Rain = 0
KBY1 140143Z 19013KT 14/M04 A3016 RMK A01 T01391038  RH  029%=      5-min Rain = 0
KBY1 140144Z 19012KT 14/M04 A3016 RMK A01 T01381038  RH  029%=      5-min Rain = 0
KBY1 140145Z 18012G17KT 14/M04 A3016 RMK A01 T01381038  RH  029%=      5-min Rain = 0
KBY1 140146Z 19012KT 14/M04 A3016 RMK A01 T01371038  RH  030%=      5-min Rain = 0
KBY1 140147Z 19013KT 14/M04 A3016 RMK A01 T01371037  RH  030%=      5-min Rain = 0
KBY1 140148Z 18011KT 14/M04 A3016 RMK A01 T01371037  RH  030%=      5-min Rain = 0
KBY1 140149Z 19012KT 14/M04 A3016 RMK A01 T01361037  RH  030%=      5-min Rain = 0
KBY1 140150Z 19012KT 14/M04 A3016 RMK A01 T01361037  RH  030%=      5-min Rain = 0
KBY1 140151Z 19012KT 14/M04 A3016 RMK A01 T01351036  RH  030%=      5-min Rain = 0
KBY1 140152Z 19013KT 14/M04 A3016 RMK A01 T01351036  RH  030%=      5-min Rain = 0
KBY1 140153Z 19010KT 14/M04 A3016 RMK A01 T01351036  RH  030%=      5-min Rain = 0
KBY1 140154Z 19011KT 13/M04 A3016 RMK A01 T01331036  RH  031%=      5-min Rain = 0
KBY1 140155Z 19012G17KT 13/M04 A3016 RMK A01 T01331036  RH  031%=      5-min Rain = 0
KBY1 140156Z 19011KT 13/M04 A3016 RMK A01 T01331035  RH  031%=      5-min Rain = 0
KBY1 140157Z 19011KT 13/M04 A3016 RMK A01 T01321035  RH  031%=      5-min Rain = 0
KBY1 140158Z 19010KT 13/M04 A3016 RMK A01 T01321035  RH  031%=      5-min Rain = 0
KBY1 140159Z 19011KT 13/M04 A3016 RMK A01 T01321035  RH  031%=      5-min Rain = 0
KBY1 140200Z 19010KT 13/M03 A3016 RMK A01 T01321034  RH  031%=      5-min Rain = 0
KBY1 140201Z 19010G16KT 13/M04 A3016 RMK A01 T01311035  RH  031%=      5-min Rain = 0
KBY1 140202Z 19014KT 13/M03 A3016 RMK A01 T01301034  RH  032%=      5-min Rain = 0
KBY1 140203Z 19013KT 13/M03 A3016 RMK A01 T01321034  RH  032%=      5-min Rain = 0
KBY1 140204Z 20013G18KT 13/M03 A3016 RMK A01 T01321034  RH  031%=      5-min Rain = 0
KBY1 140205Z 19016KT 13/M03 A3016 RMK A01 T01321033  RH  032%=      5-min Rain = 0
KBY1 140206Z 19013G19KT 13/M03 A3016 RMK A01 T01331032  RH  032%=      5-min Rain = 0
KBY1 140207Z 19013KT 13/M03 A3016 RMK A01 T01331032  RH  032%=      5-min Rain = 0
KBY1 140208Z 19016KT 13/M03 A3016 RMK A01 T01321031  RH  032%=      5-min Rain = 0
KBY1 140209Z 20014KT 13/M03 A3016 RMK A01 T01331030  RH  032%=      5-min Rain = 0
KBY1 140210Z 19012KT 13/M03 A3016 RMK A01 T01341030  RH  032%=      5-min Rain = 0
KBY1 140211Z 19016G21KT 13/M03 A3016 RMK A01 T01331031  RH  032%=      5-min Rain = 0
KBY1 140212Z 19014KT 13/M03 A3016 RMK A01 T01331030  RH  032%=      5-min Rain = 0
KBY1 140213Z 18013KT 13/M03 A3016 RMK A01 T01341030  RH  032%=      5-min Rain = 0
KBY1 140214Z 19014KT 13/M03 A3016 RMK A01 T01331030  RH  032%=      5-min Rain = 0
KBY1 140215Z 19015KT 13/M03 A3016 RMK A01 T01331030  RH  032%=      5-min Rain = 0
KBY1 140216Z 19015KT 13/M03 A3016 RMK A01 T01331029  RH  032%=      5-min Rain = 0
KBY1 140217Z 19014KT 13/M03 A3016 RMK A01 T01331029  RH  033%=      5-min Rain = 0
KBY1 140218Z 19012KT 13/M03 A3016 RMK A01 T01321029  RH  032%=      5-min Rain = 0
KBY1 140219Z 19012KT 13/M03 A3016 RMK A01 T01321029  RH  033%=      5-min Rain = 0
KBY1 140220Z 19012G18KT 13/M03 A3016 RMK A01 T01311029  RH  033%=      5-min Rain = 0
KBY1 140221Z 19012KT 13/M03 A3016 RMK A01 T01301028  RH  033%=      5-min Rain = 0
KBY1 140222Z 19011G16KT 13/M03 A3016 RMK A01 T01291029  RH  033%=      5-min Rain = 0
KBY1 140223Z 19013KT 13/M03 A3016 RMK A01 T01281028  RH  033%=      5-min Rain = 0
KBY1 140224Z 19014KT 13/M03 A3016 RMK A01 T01281028  RH  034%=      5-min Rain = 0
KBY1 140225Z 19014KT 13/M03 A3016 RMK A01 T01281028  RH  034%=      5-min Rain = 0
KBY1 140226Z 19015KT 13/M03 A3016 RMK A01 T01291027  RH  034%=      5-min Rain = 0
KBY1 140227Z 19012KT 13/M03 A3016 RMK A01 T01291027  RH  034%=      5-min Rain = 0
KBY1 140228Z 19011KT 13/M03 A3016 RMK A01 T01281027  RH  034%=      5-min Rain = 0
KBY1 140229Z 20013KT 13/M03 A3016 RMK A01 T01261028  RH  034%=      5-min Rain = 0
KBY1 140230Z 19011KT 13/M03 A3016 RMK A01 T01251027  RH  034%=      5-min Rain = 0
KBY1 140231Z 19013G19KT 13/M03 A3016 RMK A01 T01251027  RH  035%=      5-min Rain = 0
KBY1 140232Z 19014KT 13/M03 A3016 RMK A01 T01251026  RH  035%=      5-min Rain = 0
KBY1 140233Z 19012KT 13/M03 A3016 RMK A01 T01261026  RH  035%=      5-min Rain = 0
KBY1 140234Z 19012KT 13/M03 A3016 RMK A01 T01261027  RH  035%=      5-min Rain = 0
KBY1 140235Z 19012KT 13/M03 A3016 RMK A01 T01261026  RH  035%=      5-min Rain = 0
KBY1 140236Z 19011KT 13/M03 A3016 RMK A01 T01251026  RH  035%=      5-min Rain = 0
KBY1 140237Z 19012KT 13/M03 A3016 RMK A01 T01251026  RH  035%=      5-min Rain = 0
KBY1 140238Z 19012KT 13/M03 A3015 RMK A01 T01251026  RH  035%=      5-min Rain = 0
KBY1 140239Z 19014KT 12/M03 A3015 RMK A01 T01241026  RH  035%=      5-min Rain = 0
KBY1 140240Z 19013KT 12/M03 A3015 RMK A01 T01241026  RH  035%=      5-min Rain = 0
KBY1 140241Z 19011KT 12/M03 A3016 RMK A01 T01241025  RH  035%=      5-min Rain = 0
KBY1 140242Z 19012KT 12/M03 A3016 RMK A01 T01231026  RH  035%=      5-min Rain = 0
KBY1 140243Z 19011KT 12/M03 A3016 RMK A01 T01231026  RH  035%=      5-min Rain = 0
KBY1 140244Z 19012KT 12/M03 A3016 RMK A01 T01231025  RH  036%=      5-min Rain = 0
KBY1 140245Z 19011KT 12/M03 A3016 RMK A01 T01231025  RH  036%=      5-min Rain = 0
KBY1 140246Z 19012KT 12/M03 A3015 RMK A01 T01221025  RH  036%=      5-min Rain = 0
KBY1 140247Z 19013KT 12/M03 A3015 RMK A01 T01221025  RH  036%=      5-min Rain = 0
KBY1 140248Z 19014KT 12/M02 A3015 RMK A01 T01231024  RH  036%=      5-min Rain = 0
KBY1 140249Z 19013KT 12/M02 A3015 RMK A01 T01241024  RH  036%=      5-min Rain = 0
KBY1 140250Z 19014KT 13/M02 A3015 RMK A01 T01251024  RH  036%=      5-min Rain = 0
KBY1 140251Z 20015KT 13/M02 A3015 RMK A01 T01251024  RH  035%=      5-min Rain = 0
KBY1 140252Z 20012KT 13/M02 A3015 RMK A01 T01251023  RH  035%=      5-min Rain = 0
KBY1 140253Z 19011KT 13/M02 A3015 RMK A01 T01251024  RH  035%=      5-min Rain = 0
KBY1 140254Z 19012KT 13/M02 A3015 RMK A01 T01251024  RH  036%=      5-min Rain = 0
KBY1 140255Z 19012KT 12/M02 A3015 RMK A01 T01241023  RH  036%=      5-min Rain = 0
KBY1 140256Z 19011G16KT 13/M02 A3015 RMK A01 T01251023  RH  036%=      5-min Rain = 0
KBY1 140257Z 19013KT 12/M02 A3015 RMK A01 T01241023  RH  036%=      5-min Rain = 0
KBY1 140258Z 19013KT 13/M02 A3015 RMK A01 T01251022  RH  036%=      5-min Rain = 0
KBY1 140259Z 19013G18KT 13/M02 A3015 RMK A01 T01261023  RH  036%=      5-min Rain = 0
KBY1 140300Z 19014KT 13/M02 A3015 RMK A01 T01261022  RH  036%=      5-min Rain = 0
KBY1 140301Z 19013G18KT 13/M02 A3015 RMK A01 T01261022  RH  036%=      5-min Rain = 0
KBY1 140302Z 19014KT 13/M02 A3015 RMK A01 T01271021  RH  036%=      5-min Rain = 0
KBY1 140303Z 20012KT 13/M02 A3015 RMK A01 T01281021  RH  035%=      5-min Rain = 0
KBY1 140304Z 20016KT 13/M02 A3015 RMK A01 T01281021  RH  036%=      5-min Rain = 0
KBY1 140305Z 19017KT 13/M02 A3015 RMK A01 T01281021  RH  036%=      5-min Rain = 0
KBY1 140306Z 20015KT 13/M02 A3015 RMK A01 T01291020  RH  035%=      5-min Rain = 0
KBY1 140307Z 20019KT 13/M02 A3015 RMK A01 T01291021  RH  035%=      5-min Rain = 0
KBY1 140308Z 20016KT 13/M02 A3015 RMK A01 T01301020  RH  035%=      5-min Rain = 0
KBY1 140309Z 20018G23KT 13/M02 A3015 RMK A01 T01301021  RH  035%=      5-min Rain = 0
KBY1 140310Z 20018G24KT 13/M02 A3015 RMK A01 T01301020  RH  035%=      5-min Rain = 0
KBY1 140311Z 20016KT 13/M02 A3015 RMK A01 T01301020  RH  035%=      5-min Rain = 0
KBY1 140312Z 20014KT 13/M02 A3015 RMK A01 T01301020  RH  035%=      5-min Rain = 0
KBY1 140313Z 20016G21KT 13/M02 A3015 RMK A01 T01291020  RH  036%=      5-min Rain = 0
KBY1 140314Z 19018KT 13/M02 A3015 RMK A01 T01281019  RH  036%=      5-min Rain = 0
KBY1 140315Z 20020KT 13/M02 A3015 RMK A01 T01281019  RH  036%=      5-min Rain = 0
KBY1 140316Z 20017G22KT 13/M02 A3015 RMK A01 T01301018  RH  036%=      5-min Rain = 0
KBY1 140317Z 20017KT 13/M02 A3015 RMK A01 T01301019  RH  036%=      5-min Rain = 0
KBY1 140318Z 20016KT 13/M02 A3015 RMK A01 T01301019  RH  036%=      5-min Rain = 0
KBY1 140319Z 20018KT 13/M02 A3015 RMK A01 T01291018  RH  036%=      5-min Rain = 0
KBY1 140320Z 20017KT 13/M02 A3015 RMK A01 T01291018  RH  036%=      5-min Rain = 0
KBY1 140321Z 20015G20KT 13/M02 A3015 RMK A01 T01301018  RH  036%=      5-min Rain = 0
KBY1 140322Z 20014G19KT 13/M02 A3015 RMK A01 T01301017  RH  036%=      5-min Rain = 0
KBY1 140323Z 20015KT 13/M02 A3015 RMK A01 T01291018  RH  036%=      5-min Rain = 0
KBY1 140324Z 20016G21KT 13/M02 A3015 RMK A01 T01291017  RH  036%=      5-min Rain = 0
KBY1 140325Z 20013G18KT 13/M02 A3015 RMK A01 T01281017  RH  036%=      5-min Rain = 0
KBY1 140326Z 20013KT 13/M02 A3016 RMK A01 T01281017  RH  037%=      5-min Rain = 0
KBY1 140327Z 19012KT 13/M02 A3016 RMK A01 T01271017  RH  037%=      5-min Rain = 0
KBY1 140328Z 20012KT 13/M02 A3016 RMK A01 T01261017  RH  037%=      5-min Rain = 0
KBY1 140329Z 20014KT 13/M02 A3016 RMK A01 T01251017  RH  037%=      5-min Rain = 0
KBY1 140330Z 19014KT 13/M02 A3016 RMK A01 T01251016  RH  037%=      5-min Rain = 0
KBY1 140331Z 19014KT 13/M02 A3016 RMK A01 T01261016  RH  037%=      5-min Rain = 0
KBY1 140332Z 20014KT 13/M02 A3016 RMK A01 T01251016  RH  037%=      5-min Rain = 0
KBY1 140333Z 19012KT 13/M02 A3016 RMK A01 T01251016  RH  037%=      5-min Rain = 0
KBY1 140334Z 19012KT 13/M02 A3016 RMK A01 T01251015  RH  038%=      5-min Rain = 0
KBY1 140335Z 19012KT 13/M02 A3016 RMK A01 T01251015  RH  038%=      5-min Rain = 0
KBY1 140336Z 20012KT 13/M02 A3016 RMK A01 T01251015  RH  038%=      5-min Rain = 0
KBY1 140337Z 19014KT 12/M01 A3016 RMK A01 T01241014  RH  038%=      5-min Rain = 0
KBY1 140338Z 19014KT 13/M01 A3016 RMK A01 T01251013  RH  038%=      5-min Rain = 0
KBY1 140339Z 19013G18KT 13/M01 A3016 RMK A01 T01261013  RH  038%=      5-min Rain = 0
KBY1 140340Z 20012G17KT 13/M01 A3016 RMK A01 T01251013  RH  038%=      5-min Rain = 0
KBY1 140341Z 20013KT 13/M01 A3016 RMK A01 T01261012  RH  039%=      5-min Rain = 0
KBY1 140342Z 20011KT 13/M01 A3016 RMK A01 T01261011  RH  039%=      5-min Rain = 0
KBY1 140343Z 20011KT 13/M01 A3016 RMK A01 T01261012  RH  039%=      5-min Rain = 0
KBY1 140344Z 19012KT 13/M01 A3016 RMK A01 T01251011  RH  039%=      5-min Rain = 0
KBY1 140345Z 19013KT 13/M01 A3016 RMK A01 T01251010  RH  039%=      5-min Rain = 0
KBY1 140346Z 19011KT 13/M01 A3016 RMK A01 T01251010  RH  039%=      5-min Rain = 0
KBY1 140347Z 20015KT 13/M01 A3016 RMK A01 T01261010  RH  039%=      5-min Rain = 0
KBY1 140348Z 19015G21KT 13/M01 A3016 RMK A01 T01251010  RH  039%=      5-min Rain = 0
KBY1 140349Z 19013KT 13/M01 A3016 RMK A01 T01261009  RH  039%=      5-min Rain = 0
KBY1 140350Z 19012KT 13/M01 A3016 RMK A01 T01261009  RH  039%=      5-min Rain = 0
KBY1 140351Z 20013G18KT 13/M01 A3016 RMK A01 T01251010  RH  039%=      5-min Rain = 0
KBY1 140352Z 20014KT 13/M01 A3016 RMK A01 T01251009  RH  040%=      5-min Rain = 0
KBY1 140353Z 20012KT 13/M01 A3016 RMK A01 T01251009  RH  040%=      5-min Rain = 0
KBY1 140354Z 19012KT 13/M01 A3016 RMK A01 T01251009  RH  040%=      5-min Rain = 0
KBY1 140355Z 20015KT 13/M01 A3016 RMK A01 T01251008  RH  040%=      5-min Rain = 0
KBY1 140356Z 19014G19KT 13/M01 A3016 RMK A01 T01261007  RH  040%=      5-min Rain = 0
KBY1 140357Z 20017KT 13/M01 A3016 RMK A01 T01271006  RH  040%=      5-min Rain = 0
KBY1 140358Z 20014G24KT 13/M01 A3016 RMK A01 T01271007  RH  040%=      5-min Rain = 0
KBY1 140359Z 19016G22KT 13/M01 A3016 RMK A01 T01281006  RH  040%=      5-min Rain = 0
KBY1 140400Z 20016G21KT 13/M01 A3016 RMK A01 T01271006  RH  040%=      5-min Rain = 0
KBY1 140401Z 19017KT 13/M01 A3016 RMK A01 T01271006  RH  040%=      5-min Rain = 0
KBY1 140402Z 20017G22KT 13/M01 A3016 RMK A01 T01271006  RH  040%=      5-min Rain = 0
KBY1 140403Z 20018KT 13/M01 A3016 RMK A01 T01281005  RH  040%=      5-min Rain = 0
KBY1 140404Z 20018G24KT 13/M01 A3016 RMK A01 T01281005  RH  040%=      5-min Rain = 0
KBY1 140405Z 19018G25KT 13/M01 A3016 RMK A01 T01281005  RH  040%=      5-min Rain = 0
KBY1 140406Z 19017KT 13/M00 A3016 RMK A01 T01281004  RH  040%=      5-min Rain = 0
KBY1 140407Z 20017G24KT 13/M00 A3016 RMK A01 T01281004  RH  040%=      5-min Rain = 0
KBY1 140408Z 20013G19KT 13/M00 A3016 RMK A01 T01281004  RH  040%=      5-min Rain = 0
KBY1 140409Z 20019KT 13/M00 A3016 RMK A01 T01271004  RH  040%=      5-min Rain = 0
KBY1 140410Z 20015KT 13/M00 A3016 RMK A01 T01271004  RH  040%=      5-min Rain = 0
KBY1 140411Z 20016G25KT 13/M00 A3016 RMK A01 T01271004  RH  040%=      5-min Rain = 0
KBY1 140412Z 20018G26KT 13/M00 A3016 RMK A01 T01271003  RH  041%=      5-min Rain = 0
KBY1 140413Z 20018G23KT 13/M00 A3016 RMK A01 T01281003  RH  040%=      5-min Rain = 0
KBY1 140414Z 20020KT 13/M00 A3016 RMK A01 T01291003  RH  040%=      5-min Rain = 0
KBY1 140415Z 20019KT 13/M00 A3016 RMK A01 T01291003  RH  040%=      5-min Rain = 0
KBY1 140416Z 20017G23KT 13/M00 A3016 RMK A01 T01291002  RH  040%=      5-min Rain = 0
KBY1 140417Z 20017G23KT 13/M00 A3016 RMK A01 T01291002  RH  040%=      5-min Rain = 0
KBY1 140418Z 20019G25KT 13/M00 A3016 RMK A01 T01291002  RH  041%=      5-min Rain = 0
KBY1 140419Z 20017G24KT 13/M00 A3016 RMK A01 T01291001  RH  041%=      5-min Rain = 0
KBY1 140420Z 20017G24KT 13/M00 A3016 RMK A01 T01291002  RH  041%=      5-min Rain = 0
KBY1 140421Z 20020KT 13/M00 A3016 RMK A01 T01281001  RH  041%=      5-min Rain = 0
KBY1 140422Z 20017KT 13/M00 A3016 RMK A01 T01291001  RH  041%=      5-min Rain = 0
KBY1 140423Z 20019G24KT 13/M00 A3016 RMK A01 T01291001  RH  041%=      5-min Rain = 0
KBY1 140424Z 20018KT 13/00 A3016 RMK A01 T012900-0  RH  041%=      5-min Rain = 0
KBY1 140425Z 20018G23KT 13/00 A3016 RMK A01 T012900-0  RH  041%=      5-min Rain = 0
KBY1 140426Z 20018KT 13/00 A3016 RMK A01 T012900-0  RH  041%=      5-min Rain = 0
KBY1 140427Z 20017KT 13/00 A3016 RMK A01 T01290000  RH  041%=      5-min Rain = 0
KBY1 140428Z 20020KT 13/00 A3016 RMK A01 T01290000  RH  041%=      5-min Rain = 0
KBY1 140429Z 20017G22KT 13/00 A3016 RMK A01 T01290001  RH  041%=      5-min Rain = 0
KBY1 140430Z 20019G26KT 13/00 A3016 RMK A01 T01290001  RH  042%=      5-min Rain = 0
KBY1 140431Z 20019G24KT 13/00 A3016 RMK A01 T01280002  RH  042%=      5-min Rain = 0
KBY1 140432Z 20017G22KT 13/00 A3016 RMK A01 T01280002  RH  042%=      5-min Rain = 0
KBY1 140433Z 20016G21KT 13/00 A3016 RMK A01 T01280001  RH  042%=      5-min Rain = 0
KBY1 140434Z 20017G23KT 13/00 A3016 RMK A01 T01280002  RH  042%=      5-min Rain = 0
KBY1 140435Z 20018G24KT 13/00 A3016 RMK A01 T01270002  RH  042%=      5-min Rain = 0
KBY1 140436Z 20016KT 13/00 A3016 RMK A01 T01270002  RH  042%=      5-min Rain = 0
KBY1 140437Z 20018G24KT 13/00 A3016 RMK A01 T01280002  RH  042%=      5-min Rain = 0
KBY1 140438Z 20017G23KT 13/00 A3016 RMK A01 T01270002  RH  042%=      5-min Rain = 0
KBY1 140439Z 20017KT 13/00 A3016 RMK A01 T01280002  RH  042%=      5-min Rain = 0
KBY1 140440Z 20016KT 13/00 A3016 RMK A01 T01270002  RH  042%=      5-min Rain = 0
KBY1 140441Z 20016KT 13/00 A3016 RMK A01 T01270002  RH  042%=      5-min Rain = 0
KBY1 140442Z 20016KT 13/00 A3016 RMK A01 T01270003  RH  043%=      5-min Rain = 0
KBY1 140443Z 20016G23KT 13/00 A3016 RMK A01 T01270003  RH  043%=      5-min Rain = 0
KBY1 140444Z 20020KT 13/00 A3016 RMK A01 T01270003  RH  043%=      5-min Rain = 0
KBY1 140445Z 20016KT 13/00 A3016 RMK A01 T01270004  RH  043%=      5-min Rain = 0
KBY1 140446Z 20016KT 13/00 A3016 RMK A01 T01270004  RH  043%=      5-min Rain = 0
KBY1 140447Z 20019G25KT 13/00 A3016 RMK A01 T01270004  RH  043%=      5-min Rain = 0
KBY1 140448Z 20016G21KT 13/00 A3016 RMK A01 T01270004  RH  043%=      5-min Rain = 0
KBY1 140449Z 20016KT 13/00 A3016 RMK A01 T01270004  RH  043%=      5-min Rain = 0
KBY1 140450Z 20015KT 13/01 A3016 RMK A01 T01270005  RH  043%=      5-min Rain = 0
KBY1 140451Z 20019G24KT 13/01 A3016 RMK A01 T01260005  RH  044%=      5-min Rain = 0
KBY1 140452Z 20016G22KT 13/01 A3016 RMK A01 T01260006  RH  044%=      5-min Rain = 0
KBY1 140453Z 20022G30KT 13/01 A3016 RMK A01 T01260006  RH  044%=      5-min Rain = 0
KBY1 140454Z 20019KT 13/01 A3016 RMK A01 T01270007  RH  044%=      5-min Rain = 0
KBY1 140455Z 20018G23KT 13/01 A3016 RMK A01 T01270007  RH  044%=      5-min Rain = 0
KBY1 140456Z 20019G25KT 13/01 A3016 RMK A01 T01270007  RH  044%=      5-min Rain = 0
KBY1 140457Z 20020G25KT 13/01 A3016 RMK A01 T01270007  RH  044%=      5-min Rain = 0
KBY1 140458Z 20019KT 13/01 A3016 RMK A01 T01280007  RH  044%=      5-min Rain = 0
KBY1 140459Z 20017KT 13/01 A3016 RMK A01 T01280007  RH  044%=      5-min Rain = 0
KBY1 140500Z 20019G28KT 13/01 A3016 RMK A01 T01270007  RH  044%=      5-min Rain = 0
KBY1 140501Z 20017KT 13/01 A3016 RMK A01 T01270007  RH  044%=      5-min Rain = 0
KBY1 140502Z 20020KT 13/01 A3016 RMK A01 T01280008  RH  044%=      5-min Rain = 0
KBY1 140503Z 20020G28KT 13/01 A3016 RMK A01 T01270008  RH  044%=      5-min Rain = 0
KBY1 140504Z 20019G25KT 13/01 A3017 RMK A01 T01270007  RH  044%=      5-min Rain = 0
KBY1 140505Z 20017G22KT 13/01 A3017 RMK A01 T01270007  RH  044%=      5-min Rain = 0
KBY1 140506Z 20020KT 13/01 A3017 RMK A01 T01270007  RH  044%=      5-min Rain = 0
KBY1 140507Z 20018G23KT 13/01 A3016 RMK A01 T01270007  RH  044%=      5-min Rain = 0
KBY1 140508Z 20018G23KT 13/01 A3016 RMK A01 T01280007  RH  044%=      5-min Rain = 0
KBY1 140509Z 20015KT 13/01 A3016 RMK A01 T01270006  RH  044%=      5-min Rain = 0
KBY1 140510Z 20018G23KT 13/01 A3016 RMK A01 T01260006  RH  044%=      5-min Rain = 0
KBY1 140511Z 20019KT 13/01 A3016 RMK A01 T01270006  RH  044%=      5-min Rain = 0
KBY1 140512Z 20016G21KT 13/01 A3017 RMK A01 T01270006  RH  043%=      5-min Rain = 0
KBY1 140513Z 20015G20KT 13/01 A3017 RMK A01 T01270005  RH  043%=      5-min Rain = 0
KBY1 140514Z 20016KT 13/01 A3016 RMK A01 T01260005  RH  043%=      5-min Rain = 0
KBY1 140515Z 21016G21KT 13/01 A3016 RMK A01 T01260005  RH  044%=      5-min Rain = 0
KBY1 140516Z 20018G23KT 13/01 A3016 RMK A01 T01250005  RH  044%=      5-min Rain = 0
KBY1 140517Z 21018KT 13/00 A3016 RMK A01 T01250004  RH  043%=      5-min Rain = 0
KBY1 140518Z 21014KT 13/00 A3016 RMK A01 T01250004  RH  043%=      5-min Rain = 0
KBY1 140519Z 21015KT 13/00 A3016 RMK A01 T01250004  RH  043%=      5-min Rain = 0
KBY1 140520Z 21016KT 13/00 A3016 RMK A01 T01250004  RH  043%=      5-min Rain = 0
KBY1 140521Z 21016KT 13/00 A3016 RMK A01 T01250004  RH  043%=      5-min Rain = 0
KBY1 140522Z 21015G22KT 13/00 A3016 RMK A01 T01250003  RH  043%=      5-min Rain = 0
KBY1 140523Z 21015KT 13/00 A3016 RMK A01 T01250004  RH  043%=      5-min Rain = 0
KBY1 140524Z 21014KT 12/00 A3016 RMK A01 T01240003  RH  043%=      5-min Rain = 0
KBY1 140525Z 21016G23KT 12/00 A3016 RMK A01 T01240003  RH  043%=      5-min Rain = 0
KBY1 140526Z 21014KT 12/00 A3017 RMK A01 T01240003  RH  043%=      5-min Rain = 0
KBY1 140527Z 21016G22KT 12/00 A3016 RMK A01 T01230002  RH  043%=      5-min Rain = 0
KBY1 140528Z 22014G20KT 12/00 A3017 RMK A01 T01230002  RH  043%=      5-min Rain = 0
KBY1 140529Z 22013G18KT 12/00 A3017 RMK A01 T01220002  RH  043%=      5-min Rain = 0
KBY1 140530Z 21015G22KT 12/00 A3017 RMK A01 T01230002  RH  044%=      5-min Rain = 0
KBY1 140531Z 21013KT 12/00 A3017 RMK A01 T01220001  RH  043%=      5-min Rain = 0
KBY1 140532Z 21014KT 12/00 A3017 RMK A01 T01220001  RH  044%=      5-min Rain = 0
KBY1 140533Z 22014KT 12/00 A3017 RMK A01 T01210001  RH  044%=      5-min Rain = 0
KBY1 140534Z 22011KT 12/00 A3017 RMK A01 T01210001  RH  044%=      5-min Rain = 0
KBY1 140535Z 22010G15KT 12/00 A3017 RMK A01 T01200001  RH  044%=      5-min Rain = 0
KBY1 140536Z 21014G19KT 12/00 A3017 RMK A01 T01200001  RH  044%=      5-min Rain = 0
KBY1 140537Z 21014KT 12/00 A3017 RMK A01 T01200001  RH  044%=      5-min Rain = 0
KBY1 140538Z 22009KT 12/00 A3017 RMK A01 T01200001  RH  044%=      5-min Rain = 0
KBY1 140539Z 22012G19KT 12/00 A3017 RMK A01 T01200001  RH  044%=      5-min Rain = 0
KBY1 140540Z 22009G16KT 12/00 A3017 RMK A01 T01200000  RH  044%=      5-min Rain = 0
KBY1 140541Z 22008KT 12/00 A3017 RMK A01 T01200000  RH  044%=      5-min Rain = 0
KBY1 140542Z 23009G14KT 12/00 A3017 RMK A01 T01200000  RH  044%=      5-min Rain = 0
KBY1 140543Z 23010G16KT 12/00 A3017 RMK A01 T01200001  RH  044%=      5-min Rain = 0
KBY1 140544Z 24009KT 12/00 A3017 RMK A01 T01200000  RH  044%=      5-min Rain = 0
KBY1 140545Z 24009KT 12/00 A3018 RMK A01 T01200000  RH  044%=      5-min Rain = 0
KBY1 140546Z 25006KT 12/00 A3018 RMK A01 T012000-0  RH  044%=      5-min Rain = 0
KBY1 140547Z 24008KT 12/00 A3018 RMK A01 T01200000  RH  044%=      5-min Rain = 0
KBY1 140548Z 25006KT 12/00 A3018 RMK A01 T011900-0  RH  044%=      5-min Rain = 0
KBY1 140549Z 24010G15KT 12/00 A3018 RMK A01 T011900-0  RH  044%=      5-min Rain = 0
KBY1 140550Z 24008KT 12/00 A3018 RMK A01 T011900-0  RH  044%=      5-min Rain = 0
KBY1 140551Z 24008KT 12/00 A3018 RMK A01 T011900-0  RH  044%=      5-min Rain = 0
KBY1 140552Z 25006KT 12/M00 A3018 RMK A01 T01191001  RH  044%=      5-min Rain = 0
KBY1 140553Z 24004KT 12/M00 A3018 RMK A01 T01181001  RH  044%=      5-min Rain = 0
KBY1 140554Z 24005KT 12/M00 A3018 RMK A01 T01181001  RH  044%=      5-min Rain = 0
KBY1 140555Z 25005KT 12/M00 A3018 RMK A01 T01181001  RH  044%=      5-min Rain = 0
KBY1 140556Z 27006KT 12/M00 A3018 RMK A01 T01181001  RH  044%=      5-min Rain = 0
KBY1 140557Z 26007KT 12/M00 A3018 RMK A01 T01181001  RH  044%=      5-min Rain = 0
KBY1 140558Z 28003KT 12/M00 A3018 RMK A01 T01191001  RH  044%=      5-min Rain = 0
KBY1 140559Z 25005KT 12/M00 A3018 RMK A01 T01191001  RH  044%=      5-min Rain = 0

Page generated in 0.1268 seconds.